Observation data for Hobbs on 02/23/2019      Previous  Date  Next       Current Mesonet Observations  Soil Data  Daily Summary Page  Observations in Plain Language
KHO1 230600Z 26019G24KT 09/01 A298 RMK A01 T00880006  RH  056%=      5-min Rain = 0
KHO1 230601Z 26019KT 09/01 A298 RMK A01 T00870005  RH  056%=      5-min Rain = 0
KHO1 230602Z 26020G25KT 09/00 A2981 RMK A01 T00870004  RH  056%=      5-min Rain = 0
KHO1 230603Z 26020KT 09/00 A2981 RMK A01 T00870004  RH  056%=      5-min Rain = 0
KHO1 230604Z 26020G26KT 09/00 A2981 RMK A01 T00870004  RH  056%=      5-min Rain = 0
KHO1 230605Z 27020KT 09/00 A2981 RMK A01 T00870000  RH  054%=      5-min Rain = 0
KHO1 230606Z 26019KT 09/00 A2981 RMK A01 T00870002  RH  055%=      5-min Rain = 0
KHO1 230607Z 26020G29KT 09/00 A2981 RMK A01 T00870002  RH  055%=      5-min Rain = 0
KHO1 230608Z 26021KT 09/M00 A2981 RMK A01 T00871001  RH  054%=      5-min Rain = 0
KHO1 230609Z 26024KT 09/M00 A2981 RMK A01 T00871003  RH  053%=      5-min Rain = 0
KHO1 230610Z 26021G27KT 09/M00 A2981 RMK A01 T00871004  RH  053%=      5-min Rain = 0
KHO1 230611Z 27022KT 09/M00 A298 RMK A01 T00861004  RH  053%=      5-min Rain = 0
KHO1 230612Z 26022G28KT 09/M01 A2981 RMK A01 T00861005  RH  053%=      5-min Rain = 0
KHO1 230613Z 26021KT 09/M01 A298 RMK A01 T00851005  RH  053%=      5-min Rain = 0
KHO1 230614Z 26020KT 09/M01 A298 RMK A01 T00851007  RH  052%=      5-min Rain = 0
KHO1 230615Z 26019KT 09/M01 A298 RMK A01 T00851007  RH  052%=      5-min Rain = 0
KHO1 230616Z 26019G24KT 09/M01 A298 RMK A01 T00851008  RH  052%=      5-min Rain = 0
KHO1 230617Z 26022KT 09/M01 A298 RMK A01 T00851010  RH  051%=      5-min Rain = 0
KHO1 230618Z 26021G28KT 09/M01 A2981 RMK A01 T00851010  RH  051%=      5-min Rain = 0
KHO1 230619Z 26023KT 09/M01 A2981 RMK A01 T00851012  RH  051%=      5-min Rain = 0
KHO1 230620Z 26021G27KT 08/M01 A2981 RMK A01 T00841011  RH  051%=      5-min Rain = 0
KHO1 230621Z 26020G25KT 08/M01 A2981 RMK A01 T00841012  RH  051%=      5-min Rain = 0
KHO1 230622Z 25027G33KT 08/M02 A2981 RMK A01 T00841015  RH  050%=      5-min Rain = 0
KHO1 230623Z 26023KT 08/M01 A2981 RMK A01 T00841013  RH  050%=      5-min Rain = 0
KHO1 230624Z 26022G30KT 08/M01 A2981 RMK A01 T00841012  RH  051%=      5-min Rain = 0
KHO1 230625Z 26025KT 08/M01 A2981 RMK A01 T00831014  RH  050%=      5-min Rain = 0
KHO1 230626Z 26022KT 08/M01 A2981 RMK A01 T00831014  RH  051%=      5-min Rain = 0
KHO1 230627Z 25021G29KT 08/M01 A2981 RMK A01 T00821013  RH  051%=      5-min Rain = 0
KHO1 230628Z 26022KT 08/M02 A2981 RMK A01 T00821015  RH  050%=      5-min Rain = 0
KHO1 230629Z 26021KT 08/M02 A2981 RMK A01 T00831015  RH  050%=      5-min Rain = 0
KHO1 230630Z 25025KT 08/M02 A2982 RMK A01 T00831017  RH  049%=      5-min Rain = 0
KHO1 230631Z 26022KT 08/M02 A2981 RMK A01 T00831017  RH  049%=      5-min Rain = 0
KHO1 230632Z 26022G29KT 08/M02 A2981 RMK A01 T00821017  RH  050%=      5-min Rain = 0
KHO1 230633Z 26021KT 08/M02 A2981 RMK A01 T00821016  RH  050%=      5-min Rain = 0
KHO1 230634Z 26023G29KT 08/M02 A2981 RMK A01 T00811016  RH  050%=      5-min Rain = 0
KHO1 230635Z 26026G31KT 08/M02 A2981 RMK A01 T00811017  RH  050%=      5-min Rain = 0
KHO1 230636Z 25028KT 08/M02 A2981 RMK A01 T00811018  RH  049%=      5-min Rain = 0
KHO1 230637Z 26026KT 08/M02 A2981 RMK A01 T00811017  RH  050%=      5-min Rain = 0
KHO1 230638Z 26023G29KT 08/M02 A2981 RMK A01 T00801016  RH  051%=      5-min Rain = 0
KHO1 230639Z 25021KT 08/M02 A298 RMK A01 T00791016  RH  051%=      5-min Rain = 0
KHO1 230640Z 26022KT 08/M02 A2981 RMK A01 T00781017  RH  051%=      5-min Rain = 0
KHO1 230641Z 26020G27KT 08/M02 A2981 RMK A01 T00781017  RH  051%=      5-min Rain = 0
KHO1 230642Z 26021G27KT 08/M02 A2981 RMK A01 T00771017  RH  051%=      5-min Rain = 0
KHO1 230643Z 26021G26KT 08/M02 A2981 RMK A01 T00771018  RH  051%=      5-min Rain = 0
KHO1 230644Z 26021G29KT 08/M02 A2981 RMK A01 T00771018  RH  051%=      5-min Rain = 0
KHO1 230645Z 26022KT 08/M02 A2981 RMK A01 T00761018  RH  051%=      5-min Rain = 0
KHO1 230646Z 26020G26KT 08/M02 A2982 RMK A01 T00761017  RH  052%=      5-min Rain = 0
KHO1 230647Z 26023KT 08/M02 A2982 RMK A01 T00751019  RH  051%=      5-min Rain = 0
KHO1 230648Z 26020G25KT 08/M02 A2982 RMK A01 T00751019  RH  051%=      5-min Rain = 0
KHO1 230649Z 26021G26KT 08/M02 A2982 RMK A01 T00751020  RH  051%=      5-min Rain = 0
KHO1 230650Z 26021KT 08/M02 A2982 RMK A01 T00751021  RH  051%=      5-min Rain = 0
KHO1 230651Z 25022KT 07/M02 A2982 RMK A01 T00741022  RH  051%=      5-min Rain = 0
KHO1 230652Z 26021G29KT 07/M02 A2982 RMK A01 T00741022  RH  050%=      5-min Rain = 0
KHO1 230653Z 26025G30KT 07/M02 A2982 RMK A01 T00741024  RH  050%=      5-min Rain = 0
KHO1 230654Z 26018G23KT 07/M02 A2982 RMK A01 T00741022  RH  050%=      5-min Rain = 0
KHO1 230655Z 26019KT 07/M02 A2983 RMK A01 T00731023  RH  050%=      5-min Rain = 0
KHO1 230656Z 26023G28KT 07/M02 A2982 RMK A01 T00731024  RH  050%=      5-min Rain = 0
KHO1 230657Z 26022G27KT 07/M03 A2982 RMK A01 T00731025  RH  050%=      5-min Rain = 0
KHO1 230658Z 25022KT 07/M03 A2983 RMK A01 T00731026  RH  049%=      5-min Rain = 0
KHO1 230659Z 26022KT 07/M03 A2983 RMK A01 T00731027  RH  049%=      5-min Rain = 0
KHO1 230700Z 25021KT 07/M03 A2983 RMK A01 T00721027  RH  049%=      5-min Rain = 0
KHO1 230701Z 26023KT 07/M03 A2983 RMK A01 T00721028  RH  049%=      5-min Rain = 0
KHO1 230702Z 26026KT 07/M03 A2983 RMK A01 T00721029  RH  048%=      5-min Rain = 0
KHO1 230703Z 25021KT 07/M03 A2983 RMK A01 T00721029  RH  049%=      5-min Rain = 0
KHO1 230704Z 25021KT 07/M03 A2984 RMK A01 T00711029  RH  049%=      5-min Rain = 0
KHO1 230705Z 26020G29KT 07/M03 A2984 RMK A01 T00711029  RH  049%=      5-min Rain = 0
KHO1 230706Z 26023KT 07/M03 A2984 RMK A01 T00711032  RH  048%=      5-min Rain = 0
KHO1 230707Z 26018KT 07/M03 A2983 RMK A01 T00711030  RH  049%=      5-min Rain = 0
KHO1 230708Z 26026G32KT 07/M03 A2983 RMK A01 T00701032  RH  048%=      5-min Rain = 0
KHO1 230709Z 25020KT 07/M03 A2983 RMK A01 T00711032  RH  048%=      5-min Rain = 0
KHO1 230710Z 26025G30KT 07/M03 A2983 RMK A01 T00701033  RH  048%=      5-min Rain = 0
KHO1 230711Z 25027KT 07/M03 A2983 RMK A01 T00701033  RH  048%=      5-min Rain = 0
KHO1 230712Z 25026KT 07/M03 A2983 RMK A01 T00701033  RH  048%=      5-min Rain = 0
KHO1 230713Z 25025KT 07/M03 A2983 RMK A01 T00701033  RH  048%=      5-min Rain = 0
KHO1 230714Z 26024KT 07/M03 A2983 RMK A01 T00701033  RH  048%=      5-min Rain = 0
KHO1 230715Z 25024G31KT 07/M03 A2983 RMK A01 T00701034  RH  047%=      5-min Rain = 0
KHO1 230716Z 25024G30KT 07/M04 A2983 RMK A01 T00711035  RH  047%=      5-min Rain = 0
KHO1 230717Z 25024KT 07/M03 A2983 RMK A01 T00711034  RH  047%=      5-min Rain = 0
KHO1 230718Z 25023KT 07/M04 A2983 RMK A01 T00701035  RH  047%=      5-min Rain = 0
KHO1 230719Z 26019KT 07/M04 A2982 RMK A01 T00701035  RH  047%=      5-min Rain = 0
KHO1 230720Z 25017KT 07/M03 A2982 RMK A01 T00701034  RH  048%=      5-min Rain = 0
KHO1 230721Z 25019KT 07/M03 A2982 RMK A01 T00691034  RH  048%=      5-min Rain = 0
KHO1 230722Z 25019KT 07/M04 A2981 RMK A01 T00691035  RH  048%=      5-min Rain = 0
KHO1 230723Z 25018G23KT 07/M04 A2981 RMK A01 T00691035  RH  047%=      5-min Rain = 0
KHO1 230724Z 25016KT 07/M04 A2981 RMK A01 T00691035  RH  048%=      5-min Rain = 0
KHO1 230725Z 25019KT 07/M04 A2981 RMK A01 T00691035  RH  047%=      5-min Rain = 0
KHO1 230726Z 26015KT 07/M03 A2981 RMK A01 T00681034  RH  048%=      5-min Rain = 0
KHO1 230727Z 25015KT 07/M03 A2981 RMK A01 T00681034  RH  048%=      5-min Rain = 0
KHO1 230728Z 25016KT 07/M03 A2981 RMK A01 T00681034  RH  048%=      5-min Rain = 0
KHO1 230729Z 25016G21KT 07/M03 A2981 RMK A01 T00681034  RH  048%=      5-min Rain = 0
KHO1 230730Z 26017KT 07/M04 A2981 RMK A01 T00681035  RH  048%=      5-min Rain = 0
KHO1 230731Z 25015KT 07/M03 A2981 RMK A01 T00681034  RH  048%=      5-min Rain = 0
KHO1 230732Z 25016KT 07/M04 A2981 RMK A01 T00681035  RH  048%=      5-min Rain = 0
KHO1 230733Z 25016KT 07/M04 A2981 RMK A01 T00681036  RH  048%=      5-min Rain = 0
KHO1 230734Z 25014KT 07/M04 A298 RMK A01 T00681036  RH  048%=      5-min Rain = 0
KHO1 230735Z 25013KT 07/M04 A298 RMK A01 T00681035  RH  048%=      5-min Rain = 0
KHO1 230736Z 25017G22KT 07/M04 A298 RMK A01 T00681038  RH  047%=      5-min Rain = 0
KHO1 230737Z 26014G19KT 07/M04 A298 RMK A01 T00681038  RH  047%=      5-min Rain = 0
KHO1 230738Z 25015KT 07/M04 A2981 RMK A01 T00681037  RH  047%=      5-min Rain = 0
KHO1 230739Z 25017KT 07/M04 A2981 RMK A01 T00681037  RH  047%=      5-min Rain = 0
KHO1 230740Z 24016G21KT 07/M04 A2981 RMK A01 T00671036  RH  048%=      5-min Rain = 0
KHO1 230741Z 25019KT 07/M04 A2981 RMK A01 T00671037  RH  047%=      5-min Rain = 0
KHO1 230742Z 25018KT 07/M04 A2982 RMK A01 T00671036  RH  048%=      5-min Rain = 0
KHO1 230743Z 24020G26KT 07/M04 A2982 RMK A01 T00671037  RH  047%=      5-min Rain = 0
KHO1 230744Z 24021KT 07/M04 A2983 RMK A01 T00671038  RH  047%=      5-min Rain = 0
KHO1 230745Z 24017KT 07/M04 A2983 RMK A01 T00671037  RH  047%=      5-min Rain = 0
KHO1 230746Z 24014KT 07/M04 A2982 RMK A01 T00671036  RH  048%=      5-min Rain = 0
KHO1 230747Z 24012KT 07/M04 A2981 RMK A01 T00661035  RH  048%=      5-min Rain = 0
KHO1 230748Z 24014KT 07/M04 A2981 RMK A01 T00661037  RH  048%=      5-min Rain = 0
KHO1 230749Z 25018KT 07/M04 A2981 RMK A01 T00661038  RH  048%=      5-min Rain = 0
KHO1 230750Z 24016KT 07/M04 A2982 RMK A01 T00661037  RH  048%=      5-min Rain = 0
KHO1 230751Z 23014KT 07/M04 A2982 RMK A01 T00651035  RH  049%=      5-min Rain = 0
KHO1 230752Z 23016KT 07/M04 A2982 RMK A01 T00651036  RH  048%=      5-min Rain = 0
KHO1 230753Z 24015KT 07/M04 A2981 RMK A01 T00651038  RH  048%=      5-min Rain = 0
KHO1 230754Z 24016KT 07/M04 A2981 RMK A01 T00651038  RH  048%=      5-min Rain = 0
KHO1 230755Z 25018KT 07/M04 A2981 RMK A01 T00651039  RH  048%=      5-min Rain = 0
KHO1 230756Z 24017KT 07/M04 A2981 RMK A01 T00651038  RH  048%=      5-min Rain = 0
KHO1 230757Z 24016KT 06/M04 A2981 RMK A01 T00641038  RH  048%=      5-min Rain = 0
KHO1 230758Z 24016KT 06/M04 A2981 RMK A01 T00641039  RH  048%=      5-min Rain = 0
KHO1 230759Z 24021KT 06/M04 A2982 RMK A01 T00641042  RH  047%=      5-min Rain = 0
KHO1 230800Z 25023KT 06/M05 A2982 RMK A01 T00641045  RH  046%=      5-min Rain = 0
KHO1 230801Z 25022KT 06/M04 A2982 RMK A01 T00641044  RH  046%=      5-min Rain = 0
KHO1 230802Z 25024G30KT 06/M05 A2982 RMK A01 T00641045  RH  046%=      5-min Rain = 0
KHO1 230803Z 25022KT 06/M05 A2982 RMK A01 T00641045  RH  046%=      5-min Rain = 0
KHO1 230804Z 25021G26KT 06/M04 A2982 RMK A01 T00631044  RH  046%=      5-min Rain = 0
KHO1 230805Z 25022KT 06/M05 A2982 RMK A01 T00631045  RH  046%=      5-min Rain = 0
KHO1 230806Z 25025G30KT 06/M05 A2983 RMK A01 T00631046  RH  046%=      5-min Rain = 0
KHO1 230807Z 25023KT 06/M05 A2983 RMK A01 T00631045  RH  046%=      5-min Rain = 0
KHO1 230808Z 25020KT 06/M04 A2982 RMK A01 T00621044  RH  046%=      5-min Rain = 0
KHO1 230809Z 24020G25KT 06/M04 A2982 RMK A01 T00621044  RH  047%=      5-min Rain = 0
KHO1 230810Z 24026KT 06/M05 A2983 RMK A01 T00611046  RH  046%=      5-min Rain = 0
KHO1 230811Z 25024G29KT 06/M05 A2983 RMK A01 T00611046  RH  046%=      5-min Rain = 0
KHO1 230812Z 25026KT 06/M05 A2983 RMK A01 T00611046  RH  046%=      5-min Rain = 0
KHO1 230813Z 24024KT 06/M05 A2983 RMK A01 T00611046  RH  046%=      5-min Rain = 0
KHO1 230814Z 24021KT 06/M05 A2983 RMK A01 T00601046  RH  046%=      5-min Rain = 0
KHO1 230815Z 24021G28KT 06/M05 A2983 RMK A01 T00601046  RH  047%=      5-min Rain = 0
KHO1 230816Z 24021KT 06/M05 A2983 RMK A01 T00591046  RH  047%=      5-min Rain = 0
KHO1 230817Z 24022KT 06/M05 A2983 RMK A01 T00591045  RH  047%=      5-min Rain = 0
KHO1 230818Z 23019G24KT 06/M05 A2983 RMK A01 T00581045  RH  047%=      5-min Rain = 0
KHO1 230819Z 24022G27KT 06/M05 A2983 RMK A01 T00581048  RH  047%=      5-min Rain = 0
KHO1 230820Z 24023G31KT 06/M05 A2983 RMK A01 T00571050  RH  046%=      5-min Rain = 0
KHO1 230821Z 24020G26KT 06/M05 A2983 RMK A01 T00571050  RH  046%=      5-min Rain = 0
KHO1 230822Z 23020G26KT 06/M05 A2983 RMK A01 T00561049  RH  047%=      5-min Rain = 0
KHO1 230823Z 24020G27KT 06/M05 A2983 RMK A01 T00551050  RH  047%=      5-min Rain = 0
KHO1 230824Z 24028G34KT 05/M05 A2983 RMK A01 T00541052  RH  046%=      5-min Rain = 0
KHO1 230825Z 24027G33KT 05/M05 A2983 RMK A01 T00541053  RH  046%=      5-min Rain = 0
KHO1 230826Z 24027KT 05/M05 A2983 RMK A01 T00541053  RH  046%=      5-min Rain = 0
KHO1 230827Z 24024G33KT 05/M05 A2983 RMK A01 T00531052  RH  046%=      5-min Rain = 0
KHO1 230828Z 24022G28KT 05/M05 A2983 RMK A01 T00521052  RH  047%=      5-min Rain = 0
KHO1 230829Z 24019G26KT 05/M05 A2983 RMK A01 T00511052  RH  047%=      5-min Rain = 0
KHO1 230830Z 24024G29KT 05/M05 A2983 RMK A01 T00511052  RH  048%=      5-min Rain = 0
KHO1 230831Z 23023G28KT 05/M05 A2983 RMK A01 T00501052  RH  048%=      5-min Rain = 0
KHO1 230832Z 24023G31KT 05/M05 A2983 RMK A01 T00491051  RH  048%=      5-min Rain = 0
KHO1 230833Z 23025G31KT 05/M05 A2983 RMK A01 T00491052  RH  048%=      5-min Rain = 0
KHO1 230834Z 24022G30KT 05/M05 A2984 RMK A01 T00481051  RH  048%=      5-min Rain = 0
KHO1 230835Z 25026G33KT 05/M05 A2984 RMK A01 T00471052  RH  048%=      5-min Rain = 0
KHO1 230836Z 25028G34KT 05/M05 A2984 RMK A01 T00481053  RH  048%=      5-min Rain = 0
KHO1 230837Z 25032G39KT 05/M06 A2984 RMK A01 T00481056  RH  047%=      5-min Rain = 0
KHO1 230838Z 25031G41KT 05/M06 A2984 RMK A01 T00471056  RH  047%=      5-min Rain = 0
KHO1 230839Z 26034G39KT 05/M06 A2984 RMK A01 T00481057  RH  047%=      5-min Rain = 0
KHO1 230840Z 25029G34KT 05/M06 A2984 RMK A01 T00471056  RH  047%=      5-min Rain = 0
KHO1 230841Z 25028G33KT 05/M06 A2984 RMK A01 T00461056  RH  047%=      5-min Rain = 0
KHO1 230842Z 25028G34KT 05/M06 A2984 RMK A01 T00461057  RH  047%=      5-min Rain = 0
KHO1 230843Z 25027G39KT 05/M06 A2984 RMK A01 T00451056  RH  048%=      5-min Rain = 0
KHO1 230844Z 26029G35KT 04/M06 A2984 RMK A01 T00441056  RH  048%=      5-min Rain = 0
KHO1 230845Z 25028G35KT 04/M06 A2984 RMK A01 T00441056  RH  048%=      5-min Rain = 0
KHO1 230846Z 25030G38KT 04/M06 A2984 RMK A01 T00441056  RH  049%=      5-min Rain = 0
KHO1 230847Z 25034G44KT 04/M06 A2984 RMK A01 T00431056  RH  048%=      5-min Rain = 0
KHO1 230848Z 25031G39KT 04/M06 A2983 RMK A01 T00441056  RH  049%=      5-min Rain = 0
KHO1 230849Z 25031G41KT 04/M06 A2983 RMK A01 T00431055  RH  049%=      5-min Rain = 0
KHO1 230850Z 25028G35KT 04/M06 A2983 RMK A01 T00431055  RH  049%=      5-min Rain = 0
KHO1 230851Z 25034G43KT 04/M06 A2983 RMK A01 T00431055  RH  049%=      5-min Rain = 0
KHO1 230852Z 25038G43KT 04/M06 A2984 RMK A01 T00431056  RH  049%=      5-min Rain = 0
KHO1 230853Z 25036G43KT 04/M06 A2984 RMK A01 T00431056  RH  049%=      5-min Rain = 0
KHO1 230854Z 25035G43KT 04/M06 A2983 RMK A01 T00431056  RH  049%=      5-min Rain = 0
KHO1 230855Z 25033G44KT 04/M06 A2983 RMK A01 T00421056  RH  049%=      5-min Rain = 0
KHO1 230856Z 25035G41KT 04/M06 A2983 RMK A01 T00421057  RH  049%=      5-min Rain = 0
KHO1 230857Z 25033G40KT 04/M06 A2983 RMK A01 T00411057  RH  049%=      5-min Rain = 0
KHO1 230858Z 25035KT 04/M06 A2983 RMK A01 T00411058  RH  049%=      5-min Rain = 0
KHO1 230859Z 25035G41KT 04/M06 A2983 RMK A01 T00411058  RH  048%=      5-min Rain = 0
KHO1 230900Z 24034G41KT 04/M06 A2983 RMK A01 T00411059  RH  048%=      5-min Rain = 0
KHO1 230901Z 25031G36KT 04/M06 A2984 RMK A01 T00401058  RH  049%=      5-min Rain = 0
KHO1 230902Z 25033G39KT 04/M06 A2984 RMK A01 T00401059  RH  048%=      5-min Rain = 0
KHO1 230903Z 25032G39KT 04/M06 A2984 RMK A01 T00401060  RH  048%=      5-min Rain = 0
KHO1 230904Z 25032G37KT 04/M06 A2984 RMK A01 T00401061  RH  048%=      5-min Rain = 0
KHO1 230905Z 25032KT 04/M06 A2984 RMK A01 T00391062  RH  048%=      5-min Rain = 0
KHO1 230906Z 25034G42KT 04/M06 A2984 RMK A01 T00391062  RH  048%=      5-min Rain = 0
KHO1 230907Z 25035G41KT 04/M06 A2984 RMK A01 T00391063  RH  047%=      5-min Rain = 0
KHO1 230908Z 25037G44KT 04/M06 A2984 RMK A01 T00391064  RH  047%=      5-min Rain = 0
KHO1 230909Z 25036G41KT 04/M06 A2984 RMK A01 T00391064  RH  047%=      5-min Rain = 0
KHO1 230910Z 25031G36KT 04/M06 A2984 RMK A01 T00391064  RH  047%=      5-min Rain = 0
KHO1 230911Z 25030G37KT 04/M06 A2984 RMK A01 T00381063  RH  047%=      5-min Rain = 0
KHO1 230912Z 25028G35KT 04/M06 A2984 RMK A01 T00381063  RH  048%=      5-min Rain = 0
KHO1 230913Z 25029G34KT 04/M06 A2984 RMK A01 T00371064  RH  048%=      5-min Rain = 0
KHO1 230914Z 25036G44KT 04/M06 A2984 RMK A01 T00371064  RH  047%=      5-min Rain = 0
KHO1 230915Z 25032KT 04/M06 A2984 RMK A01 T00381064  RH  047%=      5-min Rain = 0
KHO1 230916Z 25031G36KT 04/M06 A2984 RMK A01 T00371064  RH  047%=      5-min Rain = 0
KHO1 230917Z 25033KT 04/M06 A2984 RMK A01 T00371064  RH  047%=      5-min Rain = 0
KHO1 230918Z 25033G41KT 04/M06 A2984 RMK A01 T00371064  RH  048%=      5-min Rain = 0
KHO1 230919Z 25030G40KT 04/M06 A2984 RMK A01 T00371064  RH  048%=      5-min Rain = 0
KHO1 230920Z 25028G37KT 04/M06 A2984 RMK A01 T00361064  RH  048%=      5-min Rain = 0
KHO1 230921Z 25030G38KT 04/M06 A2984 RMK A01 T00361064  RH  048%=      5-min Rain = 0
KHO1 230922Z 25029G37KT 04/M06 A2984 RMK A01 T00361063  RH  048%=      5-min Rain = 0
KHO1 230923Z 25033KT 04/M06 A2984 RMK A01 T00361063  RH  048%=      5-min Rain = 0
KHO1 230924Z 25029G38KT 04/M06 A2984 RMK A01 T00351063  RH  049%=      5-min Rain = 0
KHO1 230925Z 25033G38KT 04/M06 A2985 RMK A01 T00351062  RH  049%=      5-min Rain = 0
KHO1 230926Z 24031G38KT 04/M06 A2985 RMK A01 T00361062  RH  049%=      5-min Rain = 0
KHO1 230927Z 25029G38KT 04/M06 A2985 RMK A01 T00351061  RH  049%=      5-min Rain = 0
KHO1 230928Z 25029KT 04/M06 A2985 RMK A01 T00351061  RH  049%=      5-min Rain = 0
KHO1 230929Z 24027KT 04/M06 A2985 RMK A01 T00351061  RH  049%=      5-min Rain = 0
KHO1 230930Z 24023G28KT 03/M06 A2985 RMK A01 T00341061  RH  050%=      5-min Rain = 0
KHO1 230931Z 24028G33KT 03/M06 A2985 RMK A01 T00341061  RH  050%=      5-min Rain = 0
KHO1 230932Z 24029G34KT 03/M06 A2985 RMK A01 T00341061  RH  050%=      5-min Rain = 0
KHO1 230933Z 24024G30KT 03/M06 A2985 RMK A01 T00341060  RH  050%=      5-min Rain = 0
KHO1 230934Z 24023G30KT 03/M06 A2985 RMK A01 T00331060  RH  051%=      5-min Rain = 0
KHO1 230935Z 24027KT 03/M06 A2985 RMK A01 T00331061  RH  050%=      5-min Rain = 0
KHO1 230936Z 24026KT 03/M06 A2985 RMK A01 T00331060  RH  050%=      5-min Rain = 0
KHO1 230937Z 25024G29KT 03/M06 A2985 RMK A01 T00331060  RH  050%=      5-min Rain = 0
KHO1 230938Z 24023G29KT 03/M06 A2985 RMK A01 T00321060  RH  051%=      5-min Rain = 0
KHO1 230939Z 25029G38KT 03/M06 A2985 RMK A01 T00321061  RH  051%=      5-min Rain = 0
KHO1 230940Z 24030KT 03/M06 A2985 RMK A01 T00331061  RH  050%=      5-min Rain = 0
KHO1 230941Z 24028G33KT 03/M06 A2985 RMK A01 T00331061  RH  050%=      5-min Rain = 0
KHO1 230942Z 24030G36KT 03/M06 A2985 RMK A01 T00331061  RH  050%=      5-min Rain = 0
KHO1 230943Z 25026KT 03/M06 A2985 RMK A01 T00331061  RH  050%=      5-min Rain = 0
KHO1 230944Z 24025G31KT 03/M06 A2985 RMK A01 T00321061  RH  051%=      5-min Rain = 0
KHO1 230945Z 25030G36KT 03/M06 A2985 RMK A01 T00321061  RH  051%=      5-min Rain = 0
KHO1 230946Z 24030KT 03/M06 A2985 RMK A01 T00321061  RH  050%=      5-min Rain = 0
KHO1 230947Z 24024G31KT 03/M06 A2985 RMK A01 T00321061  RH  051%=      5-min Rain = 0
KHO1 230948Z 24031KT 03/M06 A2985 RMK A01 T00321060  RH  051%=      5-min Rain = 0
KHO1 230949Z 24027KT 03/M06 A2985 RMK A01 T00321060  RH  051%=      5-min Rain = 0
KHO1 230950Z 24023G29KT 03/M06 A2985 RMK A01 T00321060  RH  051%=      5-min Rain = 0
KHO1 230951Z 24026G32KT 03/M06 A2985 RMK A01 T00311060  RH  051%=      5-min Rain = 0
KHO1 230952Z 24022G27KT 03/M06 A2985 RMK A01 T00311060  RH  051%=      5-min Rain = 0
KHO1 230953Z 24021G26KT 03/M06 A2985 RMK A01 T00311059  RH  052%=      5-min Rain = 0
KHO1 230954Z 24023G30KT 03/M06 A2986 RMK A01 T00301059  RH  052%=      5-min Rain = 0
KHO1 230955Z 24025G33KT 03/M06 A2986 RMK A01 T00301059  RH  052%=      5-min Rain = 0
KHO1 230956Z 24027G32KT 03/M06 A2986 RMK A01 T00311059  RH  052%=      5-min Rain = 0
KHO1 230957Z 24025G30KT 03/M06 A2986 RMK A01 T00311059  RH  052%=      5-min Rain = 0
KHO1 230958Z 24025KT 03/M06 A2986 RMK A01 T00301059  RH  052%=      5-min Rain = 0
KHO1 230959Z 24023KT 03/M06 A2986 RMK A01 T00311058  RH  052%=      5-min Rain = 0
KHO1 231000Z 24024G29KT 03/M06 A2985 RMK A01 T00301058  RH  052%=      5-min Rain = 0
KHO1 231001Z 24025KT 03/M06 A2985 RMK A01 T00301058  RH  052%=      5-min Rain = 0
KHO1 231002Z 23026KT 03/M06 A2985 RMK A01 T00301058  RH  052%=      5-min Rain = 0
KHO1 231003Z 24026G32KT 03/M06 A2985 RMK A01 T00301058  RH  052%=      5-min Rain = 0
KHO1 231004Z 24028KT 03/M06 A2985 RMK A01 T00301058  RH  052%=      5-min Rain = 0
KHO1 231005Z 24027KT 03/M06 A2985 RMK A01 T00301058  RH  052%=      5-min Rain = 0
KHO1 231006Z 24021KT 03/M06 A2985 RMK A01 T00301058  RH  053%=      5-min Rain = 0
KHO1 231007Z 24026G31KT 03/M06 A2985 RMK A01 T00291058  RH  053%=      5-min Rain = 0
KHO1 231008Z 24025G33KT 03/M06 A2985 RMK A01 T00291058  RH  053%=      5-min Rain = 0
KHO1 231009Z 24023KT 03/M06 A2985 RMK A01 T00291058  RH  053%=      5-min Rain = 0
KHO1 231010Z 24023KT 03/M06 A2985 RMK A01 T00281058  RH  053%=      5-min Rain = 0
KHO1 231011Z 24022G28KT 03/M06 A2985 RMK A01 T00281057  RH  053%=      5-min Rain = 0
KHO1 231012Z 24025G31KT 03/M06 A2985 RMK A01 T00281057  RH  053%=      5-min Rain = 0
KHO1 231013Z 24024G31KT 03/M06 A2985 RMK A01 T00281057  RH  053%=      5-min Rain = 0
KHO1 231014Z 24021G26KT 03/M06 A2985 RMK A01 T00281057  RH  053%=      5-min Rain = 0
KHO1 231015Z 24024G31KT 03/M06 A2985 RMK A01 T00281057  RH  053%=      5-min Rain = 0
KHO1 231016Z 24027G32KT 03/M06 A2985 RMK A01 T00281058  RH  053%=      5-min Rain = 0
KHO1 231017Z 24023G28KT 03/M06 A2985 RMK A01 T00281057  RH  053%=      5-min Rain = 0
KHO1 231018Z 24026KT 03/M06 A2985 RMK A01 T00281057  RH  053%=      5-min Rain = 0
KHO1 231019Z 24027KT 03/M06 A2985 RMK A01 T00281057  RH  053%=      5-min Rain = 0
KHO1 231020Z 25026KT 03/M06 A2985 RMK A01 T00281057  RH  053%=      5-min Rain = 0
KHO1 231021Z 24025G30KT 03/M06 A2985 RMK A01 T00281057  RH  053%=      5-min Rain = 0
KHO1 231022Z 24029G34KT 03/M06 A2985 RMK A01 T00281057  RH  053%=      5-min Rain = 0
KHO1 231023Z 24027G35KT 03/M06 A2985 RMK A01 T00281057  RH  053%=      5-min Rain = 0
KHO1 231024Z 24024G29KT 03/M06 A2985 RMK A01 T00281057  RH  053%=      5-min Rain = 0
KHO1 231025Z 24028KT 03/M06 A2985 RMK A01 T00281057  RH  054%=      5-min Rain = 0
KHO1 231026Z 24023G30KT 03/M06 A2985 RMK A01 T00281057  RH  054%=      5-min Rain = 0
KHO1 231027Z 24024G29KT 03/M06 A2985 RMK A01 T00271057  RH  054%=      5-min Rain = 0
KHO1 231028Z 24026KT 03/M06 A2985 RMK A01 T00271057  RH  054%=      5-min Rain = 0
KHO1 231029Z 24025G31KT 03/M06 A2985 RMK A01 T00271057  RH  054%=      5-min Rain = 0
KHO1 231030Z 24025G32KT 03/M06 A2985 RMK A01 T00271057  RH  054%=      5-min Rain = 0
KHO1 231031Z 25020G27KT 03/M06 A2985 RMK A01 T00271057  RH  054%=      5-min Rain = 0
KHO1 231032Z 25022KT 03/M06 A2985 RMK A01 T00261058  RH  054%=      5-min Rain = 0
KHO1 231033Z 25025G31KT 03/M06 A2985 RMK A01 T00261058  RH  054%=      5-min Rain = 0
KHO1 231034Z 25027G32KT 03/M06 A2985 RMK A01 T00271058  RH  054%=      5-min Rain = 0
KHO1 231035Z 25025G30KT 03/M06 A2985 RMK A01 T00271058  RH  053%=      5-min Rain = 0
KHO1 231036Z 25026G31KT 03/M06 A2985 RMK A01 T00271058  RH  053%=      5-min Rain = 0
KHO1 231037Z 25023KT 03/M06 A2985 RMK A01 T00271059  RH  053%=      5-min Rain = 0
KHO1 231038Z 25023KT 03/M06 A2985 RMK A01 T00271059  RH  053%=      5-min Rain = 0
KHO1 231039Z 25025KT 03/M06 A2985 RMK A01 T00261059  RH  053%=      5-min Rain = 0
KHO1 231040Z 25023G28KT 03/M06 A2985 RMK A01 T00261059  RH  053%=      5-min Rain = 0
KHO1 231041Z 25024KT 03/M06 A2985 RMK A01 T00261059  RH  053%=      5-min Rain = 0
KHO1 231042Z 25020KT 03/M06 A2985 RMK A01 T00261059  RH  053%=      5-min Rain = 0
KHO1 231043Z 25021G26KT 03/M06 A2985 RMK A01 T00261059  RH  053%=      5-min Rain = 0
KHO1 231044Z 25023G29KT 03/M06 A2985 RMK A01 T00261060  RH  053%=      5-min Rain = 0
KHO1 231045Z 25025KT 03/M06 A2986 RMK A01 T00261060  RH  053%=      5-min Rain = 0
KHO1 231046Z 25025G30KT 03/M06 A2986 RMK A01 T00271060  RH  053%=      5-min Rain = 0
KHO1 231047Z 25021KT 03/M06 A2986 RMK A01 T00261060  RH  053%=      5-min Rain = 0
KHO1 231048Z 25026G31KT 03/M06 A2986 RMK A01 T00261060  RH  053%=      5-min Rain = 0
KHO1 231049Z 25024KT 03/M06 A2986 RMK A01 T00271060  RH  053%=      5-min Rain = 0
KHO1 231050Z 25021G30KT 03/M06 A2986 RMK A01 T00261061  RH  053%=      5-min Rain = 0
KHO1 231051Z 25027KT 03/M06 A2986 RMK A01 T00261061  RH  053%=      5-min Rain = 0
KHO1 231052Z 25025G31KT 03/M06 A2986 RMK A01 T00271061  RH  052%=      5-min Rain = 0
KHO1 231053Z 25021KT 03/M06 A2985 RMK A01 T00261061  RH  052%=      5-min Rain = 0
KHO1 231054Z 25023G28KT 03/M06 A2985 RMK A01 T00261061  RH  053%=      5-min Rain = 0
KHO1 231055Z 25026G33KT 03/M06 A2986 RMK A01 T00261061  RH  053%=      5-min Rain = 0
KHO1 231056Z 25028G33KT 03/M06 A2986 RMK A01 T00261062  RH  052%=      5-min Rain = 0
KHO1 231057Z 25025G30KT 03/M06 A2985 RMK A01 T00271062  RH  052%=      5-min Rain = 0
KHO1 231058Z 25024G31KT 03/M06 A2985 RMK A01 T00261062  RH  052%=      5-min Rain = 0
KHO1 231059Z 25019G24KT 03/M06 A2985 RMK A01 T00251062  RH  053%=      5-min Rain = 0
KHO1 231100Z 24022G28KT 03/M06 A2985 RMK A01 T00251062  RH  053%=      5-min Rain = 0
KHO1 231101Z 25024G30KT 02/M06 A2985 RMK A01 T00241062  RH  053%=      5-min Rain = 0
KHO1 231102Z 25025G32KT 03/M06 A2985 RMK A01 T00251062  RH  053%=      5-min Rain = 0
KHO1 231103Z 25023G28KT 03/M06 A2985 RMK A01 T00251062  RH  053%=      5-min Rain = 0
KHO1 231104Z 24024G29KT 03/M06 A2985 RMK A01 T00251062  RH  053%=      5-min Rain = 0
KHO1 231105Z 24022G27KT 03/M06 A2985 RMK A01 T00251062  RH  053%=      5-min Rain = 0
KHO1 231106Z 25026G31KT 03/M06 A2985 RMK A01 T00251062  RH  053%=      5-min Rain = 0
KHO1 231107Z 25025KT 03/M06 A2985 RMK A01 T00251062  RH  053%=      5-min Rain = 0
KHO1 231108Z 25024KT 03/M06 A2985 RMK A01 T00251062  RH  053%=      5-min Rain = 0
KHO1 231109Z 25022G30KT 02/M06 A2985 RMK A01 T00241062  RH  053%=      5-min Rain = 0
KHO1 231110Z 25025KT 02/M06 A2985 RMK A01 T00241063  RH  053%=      5-min Rain = 0
KHO1 231111Z 25024G31KT 02/M06 A2985 RMK A01 T00241063  RH  053%=      5-min Rain = 0
KHO1 231112Z 25024G30KT 02/M06 A2985 RMK A01 T00241063  RH  053%=      5-min Rain = 0
KHO1 231113Z 25025KT 02/M06 A2985 RMK A01 T00241063  RH  053%=      5-min Rain = 0
KHO1 231114Z 25024KT 02/M06 A2985 RMK A01 T00241063  RH  053%=      5-min Rain = 0
KHO1 231115Z 25025KT 02/M06 A2985 RMK A01 T00241063  RH  053%=      5-min Rain = 0
KHO1 231116Z 25025KT 02/M06 A2985 RMK A01 T00241063  RH  053%=      5-min Rain = 0
KHO1 231117Z 25024KT 02/M06 A2985 RMK A01 T00231063  RH  053%=      5-min Rain = 0
KHO1 231118Z 25024KT 02/M06 A2985 RMK A01 T00231063  RH  053%=      5-min Rain = 0
KHO1 231119Z 25022G28KT 02/M06 A2985 RMK A01 T00231063  RH  053%=      5-min Rain = 0
KHO1 231120Z 25021G27KT 02/M06 A2985 RMK A01 T00221063  RH  053%=      5-min Rain = 0
KHO1 231121Z 25020G25KT 02/M06 A2985 RMK A01 T00221063  RH  053%=      5-min Rain = 0
KHO1 231122Z 25022KT 02/M06 A2985 RMK A01 T00221063  RH  054%=      5-min Rain = 0
KHO1 231123Z 24022G27KT 02/M06 A2985 RMK A01 T00211063  RH  054%=      5-min Rain = 0
KHO1 231124Z 25021KT 02/M06 A2985 RMK A01 T00221063  RH  054%=      5-min Rain = 0
KHO1 231125Z 25022KT 02/M06 A2985 RMK A01 T00211063  RH  054%=      5-min Rain = 0
KHO1 231126Z 25022KT 02/M06 A2985 RMK A01 T00211063  RH  054%=      5-min Rain = 0
KHO1 231127Z 25022KT 02/M06 A2985 RMK A01 T00211063  RH  054%=      5-min Rain = 0
KHO1 231128Z 25022G28KT 02/M06 A2985 RMK A01 T00211063  RH  054%=      5-min Rain = 0
KHO1 231129Z 25025G30KT 02/M06 A2985 RMK A01 T00211063  RH  054%=      5-min Rain = 0
KHO1 231130Z 25025KT 02/M06 A2985 RMK A01 T00221063  RH  054%=      5-min Rain = 0
KHO1 231131Z 25024KT 02/M06 A2985 RMK A01 T00221063  RH  054%=      5-min Rain = 0
KHO1 231132Z 24021G26KT 02/M06 A2985 RMK A01 T00211063  RH  054%=      5-min Rain = 0
KHO1 231133Z 24023G29KT 02/M06 A2985 RMK A01 T00211063  RH  054%=      5-min Rain = 0
KHO1 231134Z 25023KT 02/M06 A2985 RMK A01 T00211063  RH  054%=      5-min Rain = 0
KHO1 231135Z 24023G29KT 02/M06 A2985 RMK A01 T00211063  RH  054%=      5-min Rain = 0
KHO1 231136Z 24023G32KT 02/M06 A2985 RMK A01 T00211063  RH  054%=      5-min Rain = 0
KHO1 231137Z 25026G31KT 02/M06 A2985 RMK A01 T00211063  RH  054%=      5-min Rain = 0
KHO1 231138Z 24020KT 02/M06 A2985 RMK A01 T00211063  RH  054%=      5-min Rain = 0
KHO1 231139Z 25019G26KT 02/M06 A2985 RMK A01 T00191063  RH  054%=      5-min Rain = 0
KHO1 231140Z 24024KT 02/M06 A2985 RMK A01 T00201063  RH  054%=      5-min Rain = 0
KHO1 231141Z 24021KT 02/M06 A2985 RMK A01 T00201063  RH  054%=      5-min Rain = 0
KHO1 231142Z 24021KT 02/M06 A2985 RMK A01 T00191063  RH  054%=      5-min Rain = 0
KHO1 231143Z 24022G28KT 02/M06 A2985 RMK A01 T00191063  RH  054%=      5-min Rain = 0
KHO1 231144Z 24018KT 02/M06 A2985 RMK A01 T00191063  RH  055%=      5-min Rain = 0
KHO1 231145Z 24024KT 02/M06 A2986 RMK A01 T00191063  RH  055%=      5-min Rain = 0
KHO1 231146Z 24023G28KT 02/M06 A2986 RMK A01 T00191063  RH  055%=      5-min Rain = 0
KHO1 231147Z 24024KT 02/M06 A2986 RMK A01 T00191063  RH  055%=      5-min Rain = 0
KHO1 231148Z 24024KT 02/M06 A2986 RMK A01 T00201063  RH  054%=      5-min Rain = 0
KHO1 231149Z 24022G28KT 02/M06 A2986 RMK A01 T00191063  RH  054%=      5-min Rain = 0
KHO1 231150Z 24021G27KT 02/M06 A2986 RMK A01 T00191063  RH  054%=      5-min Rain = 0
KHO1 231151Z 24022KT 02/M06 A2986 RMK A01 T00191063  RH  055%=      5-min Rain = 0
KHO1 231152Z 24021KT 02/M06 A2986 RMK A01 T00191063  RH  055%=      5-min Rain = 0
KHO1 231153Z 24023G28KT 02/M06 A2986 RMK A01 T00191063  RH  055%=      5-min Rain = 0
KHO1 231154Z 24022G27KT 02/M06 A2986 RMK A01 T00191063  RH  055%=      5-min Rain = 0
KHO1 231155Z 24021G27KT 02/M06 A2986 RMK A01 T00181063  RH  055%=      5-min Rain = 0
KHO1 231156Z 24019KT 02/M06 A2986 RMK A01 T00181063  RH  055%=      5-min Rain = 0
KHO1 231157Z 24024G31KT 02/M06 A2986 RMK A01 T00181063  RH  055%=      5-min Rain = 0
KHO1 231158Z 24028KT 02/M06 A2986 RMK A01 T00191063  RH  055%=      5-min Rain = 0
KHO1 231159Z 24024G30KT 02/M06 A2986 RMK A01 T00201063  RH  054%=      5-min Rain = 0
KHO1 231200Z 24022KT 02/M06 A2986 RMK A01 T00191063  RH  055%=      5-min Rain = 0
KHO1 231201Z 25024KT 02/M06 A2986 RMK A01 T00191063  RH  055%=      5-min Rain = 0
KHO1 231202Z 24021KT 02/M06 A2986 RMK A01 T00181063  RH  055%=      5-min Rain = 0
KHO1 231203Z 24022G29KT 02/M06 A2986 RMK A01 T00181063  RH  055%=      5-min Rain = 0
KHO1 231204Z 24029KT 02/M06 A2986 RMK A01 T00181063  RH  055%=      5-min Rain = 0
KHO1 231205Z 24025G31KT 02/M06 A2986 RMK A01 T00191063  RH  055%=      5-min Rain = 0
KHO1 231206Z 24023G29KT 02/M06 A2985 RMK A01 T00191063  RH  055%=      5-min Rain = 0
KHO1 231207Z 24023G30KT 02/M06 A2985 RMK A01 T00181063  RH  055%=      5-min Rain = 0
KHO1 231208Z 24025G32KT 02/M06 A2986 RMK A01 T00181063  RH  055%=      5-min Rain = 0
KHO1 231209Z 25026KT 02/M06 A2986 RMK A01 T00181063  RH  055%=      5-min Rain = 0
KHO1 231210Z 25026G31KT 02/M06 A2986 RMK A01 T00181063  RH  055%=      5-min Rain = 0
KHO1 231211Z 24021G26KT 02/M06 A2986 RMK A01 T00191063  RH  055%=      5-min Rain = 0
KHO1 231212Z 24027KT 02/M06 A2986 RMK A01 T00181063  RH  055%=      5-min Rain = 0
KHO1 231213Z 25025KT 02/M06 A2986 RMK A01 T00181063  RH  055%=      5-min Rain = 0
KHO1 231214Z 25022KT 02/M06 A2986 RMK A01 T00181063  RH  055%=      5-min Rain = 0
KHO1 231215Z 24021KT 02/M06 A2986 RMK A01 T00171063  RH  055%=      5-min Rain = 0
KHO1 231216Z 24023KT 02/M06 A2986 RMK A01 T00171063  RH  055%=      5-min Rain = 0
KHO1 231217Z 25024G30KT 02/M06 A2986 RMK A01 T00181063  RH  055%=      5-min Rain = 0
KHO1 231218Z 25023G28KT 02/M06 A2986 RMK A01 T00181063  RH  055%=      5-min Rain = 0
KHO1 231219Z 25020G26KT 02/M06 A2986 RMK A01 T00171063  RH  055%=      5-min Rain = 0
KHO1 231220Z 25022G28KT 02/M06 A2986 RMK A01 T00171063  RH  055%=      5-min Rain = 0
KHO1 231221Z 25022G28KT 02/M06 A2986 RMK A01 T00171063  RH  055%=      5-min Rain = 0
KHO1 231222Z 25022G29KT 02/M06 A2987 RMK A01 T00171063  RH  055%=      5-min Rain = 0
KHO1 231223Z 26023G29KT 02/M06 A2987 RMK A01 T00171063  RH  055%=      5-min Rain = 0
KHO1 231224Z 26021G26KT 02/M06 A2987 RMK A01 T00181063  RH  055%=      5-min Rain = 0
KHO1 231225Z 26023KT 02/M06 A2987 RMK A01 T00181063  RH  055%=      5-min Rain = 0
KHO1 231226Z 26022KT 02/M06 A2987 RMK A01 T00181063  RH  055%=      5-min Rain = 0
KHO1 231227Z 26021KT 02/M06 A2987 RMK A01 T00181063  RH  055%=      5-min Rain = 0
KHO1 231228Z 26021G26KT 02/M06 A2987 RMK A01 T00171063  RH  055%=      5-min Rain = 0
KHO1 231229Z 25019KT 02/M06 A2987 RMK A01 T00171063  RH  055%=      5-min Rain = 0
KHO1 231230Z 26021G27KT 02/M06 A2987 RMK A01 T00161063  RH  055%=      5-min Rain = 0
KHO1 231231Z 25024KT 02/M06 A2987 RMK A01 T00171063  RH  055%=      5-min Rain = 0
KHO1 231232Z 25024G30KT 02/M06 A2987 RMK A01 T00171063  RH  055%=      5-min Rain = 0
KHO1 231233Z 25020KT 02/M06 A2987 RMK A01 T00161063  RH  055%=      5-min Rain = 0
KHO1 231234Z 25023KT 02/M06 A2987 RMK A01 T00161063  RH  056%=      5-min Rain = 0
KHO1 231235Z 25020KT 02/M06 A2987 RMK A01 T00161063  RH  056%=      5-min Rain = 0
KHO1 231236Z 25021G26KT 02/M06 A2987 RMK A01 T00161063  RH  056%=      5-min Rain = 0
KHO1 231237Z 25025G32KT 02/M06 A2987 RMK A01 T00161063  RH  056%=      5-min Rain = 0
KHO1 231238Z 26022G27KT 02/M06 A2987 RMK A01 T00161063  RH  055%=      5-min Rain = 0
KHO1 231239Z 26018G24KT 02/M06 A2987 RMK A01 T00161063  RH  056%=      5-min Rain = 0
KHO1 231240Z 25022KT 02/M06 A2987 RMK A01 T00161063  RH  056%=      5-min Rain = 0
KHO1 231241Z 26023KT 02/M06 A2987 RMK A01 T00161063  RH  056%=      5-min Rain = 0
KHO1 231242Z 25021KT 02/M06 A2987 RMK A01 T00161063  RH  056%=      5-min Rain = 0
KHO1 231243Z 25024KT 02/M06 A2987 RMK A01 T00161064  RH  056%=      5-min Rain = 0
KHO1 231244Z 25021KT 02/M06 A2987 RMK A01 T00161064  RH  056%=      5-min Rain = 0
KHO1 231245Z 25022KT 02/M06 A2987 RMK A01 T00161064  RH  056%=      5-min Rain = 0
KHO1 231246Z 25022KT 02/M06 A2987 RMK A01 T00151064  RH  056%=      5-min Rain = 0
KHO1 231247Z 25023KT 02/M06 A2987 RMK A01 T00151064  RH  056%=      5-min Rain = 0
KHO1 231248Z 25024G30KT 02/M06 A2987 RMK A01 T00151064  RH  056%=      5-min Rain = 0
KHO1 231249Z 25022G27KT 02/M06 A2987 RMK A01 T00151064  RH  056%=      5-min Rain = 0
KHO1 231250Z 25026KT 02/M06 A2987 RMK A01 T00151064  RH  056%=      5-min Rain = 0
KHO1 231251Z 25023G31KT 02/M06 A2987 RMK A01 T00151064  RH  056%=      5-min Rain = 0
KHO1 231252Z 25027KT 02/M06 A2987 RMK A01 T00161064  RH  056%=      5-min Rain = 0
KHO1 231253Z 25024KT 02/M06 A2986 RMK A01 T00161064  RH  056%=      5-min Rain = 0
KHO1 231254Z 24022G32KT 02/M06 A2986 RMK A01 T00151064  RH  056%=      5-min Rain = 0
KHO1 231255Z 25025G30KT 02/M06 A2987 RMK A01 T00151064  RH  056%=      5-min Rain = 0
KHO1 231256Z 25025G31KT 02/M06 A2987 RMK A01 T00151064  RH  056%=      5-min Rain = 0
KHO1 231257Z 25025G32KT 02/M06 A2987 RMK A01 T00151064  RH  056%=      5-min Rain = 0
KHO1 231258Z 25028G34KT 02/M06 A2987 RMK A01 T00161064  RH  056%=      5-min Rain = 0
KHO1 231259Z 25025KT 02/M06 A2987 RMK A01 T00151064  RH  056%=      5-min Rain = 0
KHO1 231300Z 25023KT 02/M06 A2987 RMK A01 T00151064  RH  056%=      5-min Rain = 0
KHO1 231301Z 25024KT 02/M06 A2987 RMK A01 T00151064  RH  056%=      5-min Rain = 0
KHO1 231302Z 24023KT 02/M06 A2987 RMK A01 T00151064  RH  056%=      5-min Rain = 0
KHO1 231303Z 25026G31KT 02/M06 A2987 RMK A01 T00151064  RH  056%=      5-min Rain = 0
KHO1 231304Z 25022G27KT 02/M06 A2987 RMK A01 T00151064  RH  056%=      5-min Rain = 0
KHO1 231305Z 25024KT 02/M06 A2987 RMK A01 T00151064  RH  056%=      5-min Rain = 0
KHO1 231306Z 25022KT 02/M06 A2987 RMK A01 T00151064  RH  056%=      5-min Rain = 0
KHO1 231307Z 25024KT 02/M07 A2988 RMK A01 T00151065  RH  056%=      5-min Rain = 0
KHO1 231308Z 25022G29KT 02/M07 A2988 RMK A01 T00151065  RH  056%=      5-min Rain = 0
KHO1 231309Z 25021G27KT 01/M07 A2988 RMK A01 T00141065  RH  056%=      5-min Rain = 0
KHO1 231310Z 25023KT 02/M07 A2988 RMK A01 T00151065  RH  056%=      5-min Rain = 0
KHO1 231311Z 25020KT 01/M07 A2988 RMK A01 T00141065  RH  056%=      5-min Rain = 0
KHO1 231312Z 25022G27KT 01/M07 A2988 RMK A01 T00141065  RH  056%=      5-min Rain = 0
KHO1 231313Z 25024G29KT 01/M07 A2988 RMK A01 T00141065  RH  056%=      5-min Rain = 0
KHO1 231314Z 25021G29KT 01/M07 A2988 RMK A01 T00141065  RH  056%=      5-min Rain = 0
KHO1 231315Z 25024KT 01/M07 A2988 RMK A01 T00141065  RH  056%=      5-min Rain = 0
KHO1 231316Z 25024KT 01/M07 A2988 RMK A01 T00141065  RH  055%=      5-min Rain = 0
KHO1 231317Z 25022G28KT 02/M07 A2988 RMK A01 T00151065  RH  055%=      5-min Rain = 0
KHO1 231318Z 25021G26KT 01/M07 A2988 RMK A01 T00141066  RH  055%=      5-min Rain = 0
KHO1 231319Z 25020KT 01/M07 A2988 RMK A01 T00141066  RH  055%=      5-min Rain = 0
KHO1 231320Z 25024KT 01/M07 A2988 RMK A01 T00141066  RH  055%=      5-min Rain = 0
KHO1 231321Z 25021G27KT 01/M07 A2988 RMK A01 T00141066  RH  055%=      5-min Rain = 0
KHO1 231322Z 25022G28KT 01/M07 A2988 RMK A01 T00141066  RH  055%=      5-min Rain = 0
KHO1 231323Z 25021G26KT 01/M07 A2988 RMK A01 T00141066  RH  055%=      5-min Rain = 0
KHO1 231324Z 25017G23KT 01/M07 A2988 RMK A01 T00141066  RH  055%=      5-min Rain = 0
KHO1 231325Z 25020KT 01/M07 A2988 RMK A01 T00131066  RH  055%=      5-min Rain = 0
KHO1 231326Z 25017KT 01/M07 A2988 RMK A01 T00131066  RH  055%=      5-min Rain = 0
KHO1 231327Z 25020KT 01/M07 A2988 RMK A01 T00131067  RH  055%=      5-min Rain = 0
KHO1 231328Z 24020KT 01/M07 A2989 RMK A01 T00131067  RH  055%=      5-min Rain = 0
KHO1 231329Z 24018KT 01/M07 A2989 RMK A01 T00131067  RH  055%=      5-min Rain = 0
KHO1 231330Z 24020G25KT 01/M07 A2989 RMK A01 T00131067  RH  055%=      5-min Rain = 0
KHO1 231331Z 24019KT 01/M07 A2989 RMK A01 T00131067  RH  055%=      5-min Rain = 0
KHO1 231332Z 24019G24KT 01/M07 A2989 RMK A01 T00131067  RH  055%=      5-min Rain = 0
KHO1 231333Z 24019G24KT 01/M07 A2989 RMK A01 T00141067  RH  055%=      5-min Rain = 0
KHO1 231334Z 24020KT 01/M07 A2989 RMK A01 T00131067  RH  055%=      5-min Rain = 0
KHO1 231335Z 25019G24KT 01/M07 A2989 RMK A01 T00141068  RH  055%=      5-min Rain = 0
KHO1 231336Z 24020G26KT 01/M07 A2989 RMK A01 T00141068  RH  055%=      5-min Rain = 0
KHO1 231337Z 24020G25KT 01/M07 A2989 RMK A01 T00141068  RH  054%=      5-min Rain = 0
KHO1 231338Z 24018KT 01/M07 A2989 RMK A01 T00141068  RH  054%=      5-min Rain = 0
KHO1 231339Z 24019KT 01/M07 A2989 RMK A01 T00141068  RH  054%=      5-min Rain = 0
KHO1 231340Z 24021KT 02/M07 A2989 RMK A01 T00151068  RH  054%=      5-min Rain = 0
KHO1 231341Z 24019KT 02/M07 A2989 RMK A01 T00151068  RH  054%=      5-min Rain = 0
KHO1 231342Z 24020KT 02/M07 A2989 RMK A01 T00151068  RH  054%=      5-min Rain = 0
KHO1 231343Z 24018G24KT 02/M07 A2989 RMK A01 T00151068  RH  054%=      5-min Rain = 0
KHO1 231344Z 24022KT 02/M07 A2989 RMK A01 T00151068  RH  054%=      5-min Rain = 0
KHO1 231345Z 24020G25KT 02/M07 A2989 RMK A01 T00161068  RH  054%=      5-min Rain = 0
KHO1 231346Z 24022KT 02/M07 A2989 RMK A01 T00161069  RH  053%=      5-min Rain = 0
KHO1 231347Z 23016G21KT 02/M07 A2989 RMK A01 T00161068  RH  054%=      5-min Rain = 0
KHO1 231348Z 23017KT 02/M07 A2988 RMK A01 T00151068  RH  054%=      5-min Rain = 0
KHO1 231349Z 24014G19KT 01/M07 A2989 RMK A01 T00141068  RH  054%=      5-min Rain = 0
KHO1 231350Z 23014KT 01/M07 A2989 RMK A01 T00141068  RH  054%=      5-min Rain = 0
KHO1 231351Z 24015KT 01/M07 A2989 RMK A01 T00141068  RH  054%=      5-min Rain = 0
KHO1 231352Z 24015KT 01/M07 A2989 RMK A01 T00141068  RH  054%=      5-min Rain = 0
KHO1 231353Z 24015KT 01/M07 A2989 RMK A01 T00141068  RH  054%=      5-min Rain = 0
KHO1 231354Z 24014KT 01/M07 A2989 RMK A01 T00141068  RH  054%=      5-min Rain = 0
KHO1 231355Z 24017KT 02/M07 A2989 RMK A01 T00151068  RH  054%=      5-min Rain = 0
KHO1 231356Z 24016G21KT 02/M07 A2989 RMK A01 T00151068  RH  054%=      5-min Rain = 0
KHO1 231357Z 24016KT 02/M07 A299 RMK A01 T00151068  RH  054%=      5-min Rain = 0
KHO1 231358Z 24015KT 02/M07 A299 RMK A01 T00161068  RH  054%=      5-min Rain = 0
KHO1 231359Z 23016KT 02/M07 A299 RMK A01 T00161069  RH  053%=      5-min Rain = 0
KHO1 231400Z 23017G22KT 02/M07 A2989 RMK A01 T00161069  RH  053%=      5-min Rain = 0
KHO1 231401Z 23018KT 02/M07 A2989 RMK A01 T00161069  RH  053%=      5-min Rain = 0
KHO1 231402Z 24019G25KT 02/M07 A2989 RMK A01 T00171069  RH  053%=      5-min Rain = 0
KHO1 231403Z 23019KT 02/M07 A2989 RMK A01 T00171069  RH  053%=      5-min Rain = 0
KHO1 231404Z 24020KT 02/M07 A299 RMK A01 T00181069  RH  052%=      5-min Rain = 0
KHO1 231405Z 24017KT 02/M07 A299 RMK A01 T00181069  RH  052%=      5-min Rain = 0
KHO1 231406Z 24018KT 02/M07 A299 RMK A01 T00191069  RH  052%=      5-min Rain = 0
KHO1 231407Z 23019G24KT 02/M07 A299 RMK A01 T00191070  RH  052%=      5-min Rain = 0
KHO1 231408Z 23017KT 02/M07 A299 RMK A01 T00191070  RH  052%=      5-min Rain = 0
KHO1 231409Z 24016G22KT 02/M07 A299 RMK A01 T00191070  RH  052%=      5-min Rain = 0
KHO1 231410Z 23016G21KT 02/M07 A299 RMK A01 T00191069  RH  052%=      5-min Rain = 0
KHO1 231411Z 24017KT 02/M07 A299 RMK A01 T00201070  RH  052%=      5-min Rain = 0
KHO1 231412Z 24019KT 02/M07 A299 RMK A01 T00201070  RH  051%=      5-min Rain = 0
KHO1 231413Z 24021KT 02/M07 A299 RMK A01 T00211070  RH  051%=      5-min Rain = 0
KHO1 231414Z 24015G20KT 02/M07 A299 RMK A01 T00211070  RH  051%=      5-min Rain = 0
KHO1 231415Z 24017KT 02/M07 A299 RMK A01 T00211070  RH  051%=      5-min Rain = 0
KHO1 231416Z 24017KT 02/M07 A299 RMK A01 T00211070  RH  051%=      5-min Rain = 0
KHO1 231417Z 24019KT 02/M07 A299 RMK A01 T00221071  RH  050%=      5-min Rain = 0
KHO1 231418Z 24018KT 02/M07 A299 RMK A01 T00221071  RH  050%=      5-min Rain = 0
KHO1 231419Z 24021KT 02/M07 A299 RMK A01 T00221071  RH  050%=      5-min Rain = 0
KHO1 231420Z 24017G24KT 02/M07 A299 RMK A01 T00231071  RH  050%=      5-min Rain = 0
KHO1 231421Z 24021KT 02/M07 A299 RMK A01 T00231071  RH  050%=      5-min Rain = 0
KHO1 231422Z 24019KT 02/M07 A299 RMK A01 T00241071  RH  049%=      5-min Rain = 0
KHO1 231423Z 24019KT 02/M07 A299 RMK A01 T00241071  RH  049%=      5-min Rain = 0
KHO1 231424Z 24017KT 02/M07 A299 RMK A01 T00241071  RH  049%=      5-min Rain = 0
KHO1 231425Z 24018KT 03/M07 A299 RMK A01 T00251071  RH  049%=      5-min Rain = 0
KHO1 231426Z 24018KT 03/M07 A299 RMK A01 T00251071  RH  049%=      5-min Rain = 0
KHO1 231427Z 24018KT 03/M07 A299 RMK A01 T00251071  RH  049%=      5-min Rain = 0
KHO1 231428Z 24020KT 03/M07 A299 RMK A01 T00261071  RH  049%=      5-min Rain = 0
KHO1 231429Z 24019G24KT 03/M07 A299 RMK A01 T00261071  RH  049%=      5-min Rain = 0
KHO1 231430Z 24020KT 03/M07 A299 RMK A01 T00261072  RH  048%=      5-min Rain = 0
KHO1 231431Z 24017KT 03/M07 A299 RMK A01 T00271071  RH  049%=      5-min Rain = 0
KHO1 231432Z 24022KT 03/M07 A299 RMK A01 T00271072  RH  048%=      5-min Rain = 0
KHO1 231433Z 24020G25KT 03/M07 A299 RMK A01 T00271072  RH  048%=      5-min Rain = 0
KHO1 231434Z 24019KT 03/M07 A299 RMK A01 T00281071  RH  048%=      5-min Rain = 0
KHO1 231435Z 25019KT 03/M07 A2991 RMK A01 T00291071  RH  048%=      5-min Rain = 0
KHO1 231436Z 25018G24KT 03/M07 A2991 RMK A01 T00291072  RH  047%=      5-min Rain = 0
KHO1 231437Z 24017G22KT 03/M07 A2991 RMK A01 T00301071  RH  047%=      5-min Rain = 0
KHO1 231438Z 24021KT 03/M07 A2991 RMK A01 T00301072  RH  047%=      5-min Rain = 0
KHO1 231439Z 24018KT 03/M07 A2991 RMK A01 T00301072  RH  047%=      5-min Rain = 0
KHO1 231440Z 24017G24KT 03/M07 A2991 RMK A01 T00311071  RH  047%=      5-min Rain = 0
KHO1 231441Z 24022G29KT 03/M07 A2991 RMK A01 T00311073  RH  046%=      5-min Rain = 0
KHO1 231442Z 25021KT 03/M07 A2991 RMK A01 T00311073  RH  046%=      5-min Rain = 0
KHO1 231443Z 25018KT 03/M07 A2991 RMK A01 T00321072  RH  046%=      5-min Rain = 0
KHO1 231444Z 25021KT 03/M07 A2991 RMK A01 T00321072  RH  046%=      5-min Rain = 0
KHO1 231445Z 24019G24KT 03/M07 A2991 RMK A01 T00331073  RH  046%=      5-min Rain = 0
KHO1 231446Z 25018G23KT 03/M07 A2991 RMK A01 T00331073  RH  046%=      5-min Rain = 0
KHO1 231447Z 24017KT 03/M07 A2992 RMK A01 T00341072  RH  046%=      5-min Rain = 0
KHO1 231448Z 25020G26KT 03/M07 A2991 RMK A01 T00341073  RH  045%=      5-min Rain = 0
KHO1 231449Z 24017G22KT 04/M07 A2991 RMK A01 T00351072  RH  045%=      5-min Rain = 0
KHO1 231450Z 25022G27KT 04/M07 A2992 RMK A01 T00351074  RH  045%=      5-min Rain = 0
KHO1 231451Z 25021KT 04/M08 A2992 RMK A01 T00351075  RH  044%=      5-min Rain = 0
KHO1 231452Z 25021KT 04/M08 A2992 RMK A01 T00351075  RH  044%=      5-min Rain = 0
KHO1 231453Z 25021G27KT 04/M08 A2992 RMK A01 T00361075  RH  044%=      5-min Rain = 0
KHO1 231454Z 25019KT 04/M07 A2992 RMK A01 T00371074  RH  044%=      5-min Rain = 0
KHO1 231455Z 24017KT 04/M07 A2992 RMK A01 T00381073  RH  044%=      5-min Rain = 0
KHO1 231456Z 24018G23KT 04/M07 A2992 RMK A01 T00381074  RH  044%=      5-min Rain = 0
KHO1 231457Z 25021G26KT 04/M08 A2992 RMK A01 T00381075  RH  044%=      5-min Rain = 0
KHO1 231458Z 25024KT 04/M08 A2992 RMK A01 T00381076  RH  043%=      5-min Rain = 0
KHO1 231459Z 25022KT 04/M08 A2992 RMK A01 T00381075  RH  043%=      5-min Rain = 0
KHO1 231500Z 26022G30KT 04/M08 A2992 RMK A01 T00391077  RH  043%=      5-min Rain = 0
KHO1 231501Z 25021G26KT 04/M08 A2992 RMK A01 T00391077  RH  042%=      5-min Rain = 0
KHO1 231502Z 25022G27KT 04/M08 A2992 RMK A01 T00391077  RH  042%=      5-min Rain = 0
KHO1 231503Z 26024G29KT 04/M08 A2992 RMK A01 T00391078  RH  042%=      5-min Rain = 0
KHO1 231504Z 25027KT 04/M08 A2992 RMK A01 T00391080  RH  041%=      5-min Rain = 0
KHO1 231505Z 25025G30KT 04/M08 A2992 RMK A01 T00391080  RH  042%=      5-min Rain = 0
KHO1 231506Z 25021KT 04/M08 A2992 RMK A01 T00401079  RH  042%=      5-min Rain = 0
KHO1 231507Z 25024KT 04/M08 A2992 RMK A01 T00401079  RH  041%=      5-min Rain = 0
KHO1 231508Z 26023G29KT 04/M08 A2992 RMK A01 T00401080  RH  041%=      5-min Rain = 0
KHO1 231509Z 26022KT 04/M08 A2992 RMK A01 T00411079  RH  041%=      5-min Rain = 0
KHO1 231510Z 26024KT 04/M08 A2992 RMK A01 T00411080  RH  041%=      5-min Rain = 0
KHO1 231511Z 25022KT 04/M08 A2992 RMK A01 T00411079  RH  041%=      5-min Rain = 0
KHO1 231512Z 26020G29KT 04/M08 A2992 RMK A01 T00421078  RH  041%=      5-min Rain = 0
KHO1 231513Z 25025G30KT 04/M08 A2992 RMK A01 T00431081  RH  040%=      5-min Rain = 0
KHO1 231514Z 25022G27KT 04/M08 A2992 RMK A01 T00421081  RH  040%=      5-min Rain = 0
KHO1 231515Z 24023KT 04/M08 A2992 RMK A01 T00441080  RH  040%=      5-min Rain = 0
KHO1 231516Z 25028KT 04/M08 A2992 RMK A01 T00441082  RH  040%=      5-min Rain = 0
KHO1 231517Z 25027G32KT 04/M08 A2992 RMK A01 T00441082  RH  039%=      5-min Rain = 0
KHO1 231518Z 25024G33KT 05/M08 A2992 RMK A01 T00451082  RH  039%=      5-min Rain = 0
KHO1 231519Z 25023G28KT 05/M08 A2992 RMK A01 T00461082  RH  039%=      5-min Rain = 0
KHO1 231520Z 25025KT 05/M08 A2992 RMK A01 T00461083  RH  039%=      5-min Rain = 0
KHO1 231521Z 26024G29KT 05/M08 A2992 RMK A01 T00451083  RH  039%=      5-min Rain = 0
KHO1 231522Z 26023KT 05/M08 A2992 RMK A01 T00461083  RH  039%=      5-min Rain = 0
KHO1 231523Z 26026G31KT 05/M08 A2992 RMK A01 T00471084  RH  038%=      5-min Rain = 0
KHO1 231524Z 25025G31KT 05/M09 A2992 RMK A01 T00471085  RH  038%=      5-min Rain = 0
KHO1 231525Z 25026KT 05/M09 A2992 RMK A01 T00461085  RH  038%=      5-min Rain = 0
KHO1 231526Z 25027KT 05/M08 A2992 RMK A01 T00471084  RH  038%=      5-min Rain = 0
KHO1 231527Z 26024KT 05/M09 A2992 RMK A01 T00471085  RH  038%=      5-min Rain = 0
KHO1 231528Z 25020KT 05/M08 A2992 RMK A01 T00491082  RH  038%=      5-min Rain = 0
KHO1 231529Z 26025G31KT 05/M08 A2993 RMK A01 T00501083  RH  038%=      5-min Rain = 0
KHO1 231530Z 26026KT 05/M09 A2992 RMK A01 T00491088  RH  036%=      5-min Rain = 0
KHO1 231531Z 25026G31KT 05/M09 A2993 RMK A01 T00491086  RH  037%=      5-min Rain = 0
KHO1 231532Z 26027KT 05/M09 A2992 RMK A01 T00491088  RH  036%=      5-min Rain = 0
KHO1 231533Z 26024G29KT 05/M09 A2993 RMK A01 T00501087  RH  037%=      5-min Rain = 0
KHO1 231534Z 26020KT 05/M09 A2992 RMK A01 T00511085  RH  037%=      5-min Rain = 0
KHO1 231535Z 25024G30KT 05/M09 A2992 RMK A01 T00531089  RH  035%=      5-min Rain = 0
KHO1 231536Z 25025KT 05/M09 A2992 RMK A01 T00531091  RH  035%=      5-min Rain = 0
KHO1 231537Z 26023G28KT 05/M09 A2992 RMK A01 T00531091  RH  035%=      5-min Rain = 0
KHO1 231538Z 25024KT 05/M09 A2992 RMK A01 T00541090  RH  035%=      5-min Rain = 0
KHO1 231539Z 25028G34KT 05/M09 A2993 RMK A01 T00531093  RH  034%=      5-min Rain = 0
KHO1 231540Z 26028KT 05/M10 A2993 RMK A01 T00531095  RH  034%=      5-min Rain = 0
KHO1 231541Z 26027G33KT 05/M09 A2992 RMK A01 T00521094  RH  034%=      5-min Rain = 0
KHO1 231542Z 26023G29KT 05/M09 A2992 RMK A01 T00541091  RH  034%=      5-min Rain = 0
KHO1 231543Z 25029G35KT 06/M10 A2993 RMK A01 T00551095  RH  033%=      5-min Rain = 0
KHO1 231544Z 26024G32KT 06/M09 A2993 RMK A01 T00551094  RH  033%=      5-min Rain = 0
KHO1 231545Z 26029G34KT 06/M10 A2993 RMK A01 T00551096  RH  033%=      5-min Rain = 0
KHO1 231546Z 27027G32KT 06/M10 A2993 RMK A01 T00551095  RH  033%=      5-min Rain = 0
KHO1 231547Z 26022G27KT 06/M09 A2993 RMK A01 T00561092  RH  033%=      5-min Rain = 0
KHO1 231548Z 25028G33KT 06/M10 A2993 RMK A01 T00581095  RH  032%=      5-min Rain = 0
KHO1 231549Z 25030KT 06/M10 A2993 RMK A01 T00581096  RH  032%=      5-min Rain = 0
KHO1 231550Z 26027KT 06/M10 A2993 RMK A01 T00571097  RH  032%=      5-min Rain = 0
KHO1 231551Z 26022G27KT 06/M10 A2992 RMK A01 T00581096  RH  032%=      5-min Rain = 0
KHO1 231552Z 25025G31KT 06/M10 A2993 RMK A01 T00591095  RH  032%=      5-min Rain = 0
KHO1 231553Z 26028G37KT 06/M10 A2993 RMK A01 T00611097  RH  031%=      5-min Rain = 0
KHO1 231554Z 27027G32KT 06/M10 A2992 RMK A01 T00591098  RH  031%=      5-min Rain = 0
KHO1 231555Z 25027G35KT 06/M10 A2992 RMK A01 T00601098  RH  031%=      5-min Rain = 0
KHO1 231556Z 26027KT 06/M10 A2992 RMK A01 T00601099  RH  031%=      5-min Rain = 0
KHO1 231557Z 26027G33KT 06/M10 A2993 RMK A01 T00601097  RH  031%=      5-min Rain = 0
KHO1 231558Z 26028G35KT 06/M10 A2993 RMK A01 T00591100  RH  031%=      5-min Rain = 0
KHO1 231559Z 26031G37KT 06/M10 A2993 RMK A01 T00591100  RH  031%=      5-min Rain = 0
KHO1 231600Z 26030G38KT 06/M10 A2993 RMK A01 T00601099  RH  031%=      5-min Rain = 0
KHO1 231601Z 26026G33KT 06/M10 A2993 RMK A01 T00611099  RH  031%=      5-min Rain = 0
KHO1 231602Z 28026G32KT 06/M10 A2993 RMK A01 T00621099  RH  030%=      5-min Rain = 0
KHO1 231603Z 27026G33KT 06/M10 A2993 RMK A01 T00621098  RH  031%=      5-min Rain = 0
KHO1 231604Z 27025G33KT 06/M10 A2993 RMK A01 T00631099  RH  030%=      5-min Rain = 0
KHO1 231605Z 26026KT 06/M10 A2993 RMK A01 T00621100  RH  030%=      5-min Rain = 0
KHO1 231606Z 27023KT 06/M10 A2993 RMK A01 T00641098  RH  030%=      5-min Rain = 0
KHO1 231607Z 26028KT 06/M10 A2994 RMK A01 T00631101  RH  030%=      5-min Rain = 0
KHO1 231608Z 26028G34KT 06/M10 A2994 RMK A01 T00621100  RH  030%=      5-min Rain = 0
KHO1 231609Z 27021KT 06/M10 A2993 RMK A01 T00641099  RH  030%=      5-min Rain = 0
KHO1 231610Z 26026G32KT 07/M10 A2993 RMK A01 T00651099  RH  030%=      5-min Rain = 0
KHO1 231611Z 25024G30KT 07/M10 A2993 RMK A01 T00661099  RH  030%=      5-min Rain = 0
KHO1 231612Z 26026KT 07/M10 A2993 RMK A01 T00651101  RH  029%=      5-min Rain = 0
KHO1 231613Z 26025G30KT 07/M10 A2993 RMK A01 T00661101  RH  029%=      5-min Rain = 0
KHO1 231614Z 27027G32KT 07/M10 A2993 RMK A01 T00671100  RH  029%=      5-min Rain = 0
KHO1 231615Z 28026G32KT 07/M10 A2993 RMK A01 T00671101  RH  029%=      5-min Rain = 0
KHO1 231616Z 27026G32KT 07/M10 A2994 RMK A01 T00661103  RH  029%=      5-min Rain = 0
KHO1 231617Z 27022G27KT 07/M10 A2993 RMK A01 T00661102  RH  029%=      5-min Rain = 0
KHO1 231618Z 27020G25KT 07/M10 A2994 RMK A01 T00691099  RH  029%=      5-min Rain = 0
KHO1 231619Z 27027G32KT 07/M10 A2994 RMK A01 T00701101  RH  028%=      5-min Rain = 0
KHO1 231620Z 26025G30KT 07/M10 A2994 RMK A01 T00701101  RH  028%=      5-min Rain = 0
KHO1 231621Z 25027KT 07/M11 A2994 RMK A01 T00701105  RH  028%=      5-min Rain = 0
KHO1 231622Z 26027KT 07/M11 A2994 RMK A01 T00691105  RH  028%=      5-min Rain = 0
KHO1 231623Z 27022KT 07/M10 A2994 RMK A01 T00701103  RH  028%=      5-min Rain = 0
KHO1 231624Z 28021G26KT 07/M10 A2994 RMK A01 T00711103  RH  028%=      5-min Rain = 0
KHO1 231625Z 28024KT 07/M11 A2994 RMK A01 T00701105  RH  027%=      5-min Rain = 0
KHO1 231626Z 27023G30KT 07/M10 A2994 RMK A01 T00711102  RH  028%=      5-min Rain = 0
KHO1 231627Z 27022G28KT 07/M10 A2994 RMK A01 T00711103  RH  028%=      5-min Rain = 0
KHO1 231628Z 27023KT 07/M10 A2994 RMK A01 T00721103  RH  028%=      5-min Rain = 0
KHO1 231629Z 27020G26KT 07/M10 A2995 RMK A01 T00741103  RH  027%=      5-min Rain = 0
KHO1 231630Z 28022KT 07/M11 A2995 RMK A01 T00731105  RH  027%=      5-min Rain = 0
KHO1 231631Z 28023G30KT 07/M10 A2995 RMK A01 T00731104  RH  027%=      5-min Rain = 0
KHO1 231632Z 28019G28KT 07/M10 A2995 RMK A01 T00741103  RH  027%=      5-min Rain = 0
KHO1 231633Z 28027KT 07/M11 A2995 RMK A01 T00741108  RH  026%=      5-min Rain = 0
KHO1 231634Z 28025G30KT 07/M11 A2995 RMK A01 T00711108  RH  027%=      5-min Rain = 0
KHO1 231635Z 28023KT 07/M11 A2995 RMK A01 T00711108  RH  027%=      5-min Rain = 0
KHO1 231636Z 27017G23KT 07/M10 A2995 RMK A01 T00731103  RH  027%=      5-min Rain = 0
KHO1 231637Z 27023G30KT 08/M11 A2995 RMK A01 T00761106  RH  026%=      5-min Rain = 0
KHO1 231638Z 27024KT 08/M11 A2996 RMK A01 T00761108  RH  026%=      5-min Rain = 0
KHO1 231639Z 27022KT 08/M11 A2996 RMK A01 T00761109  RH  026%=      5-min Rain = 0
KHO1 231640Z 28024G30KT 08/M11 A2996 RMK A01 T00751109  RH  026%=      5-min Rain = 0
KHO1 231641Z 27024G29KT 08/M11 A2996 RMK A01 T00761109  RH  026%=      5-min Rain = 0
KHO1 231642Z 27021G27KT 08/M11 A2996 RMK A01 T00771107  RH  026%=      5-min Rain = 0
KHO1 231643Z 27022KT 08/M11 A2996 RMK A01 T00791108  RH  025%=      5-min Rain = 0
KHO1 231644Z 28024KT 08/M11 A2996 RMK A01 T00781109  RH  025%=      5-min Rain = 0
KHO1 231645Z 27021G26KT 08/M11 A2996 RMK A01 T00791106  RH  026%=      5-min Rain = 0
KHO1 231646Z 29019G24KT 08/M11 A2996 RMK A01 T00811107  RH  025%=      5-min Rain = 0
KHO1 231647Z 27023G29KT 08/M11 A2996 RMK A01 T00821108  RH  025%=      5-min Rain = 0
KHO1 231648Z 27026G33KT 08/M11 A2997 RMK A01 T00811113  RH  024%=      5-min Rain = 0
KHO1 231649Z 28025G31KT 08/M12 A2997 RMK A01 T00791115  RH  024%=      5-min Rain = 0
KHO1 231650Z 28024KT 08/M12 A2997 RMK A01 T00781116  RH  024%=      5-min Rain = 0
KHO1 231651Z 29019KT 08/M11 A2997 RMK A01 T00791112  RH  024%=      5-min Rain = 0
KHO1 231652Z 28020KT 08/M11 A2997 RMK A01 T00821112  RH  024%=      5-min Rain = 0
KHO1 231653Z 27021KT 08/M12 A2997 RMK A01 T00821115  RH  024%=      5-min Rain = 0
KHO1 231654Z 28021KT 08/M11 A2997 RMK A01 T00821113  RH  024%=      5-min Rain = 0
KHO1 231655Z 28018G25KT 08/M11 A2997 RMK A01 T00841112  RH  024%=      5-min Rain = 0
KHO1 231656Z 28022KT 08/M11 A2997 RMK A01 T00831113  RH  024%=      5-min Rain = 0
KHO1 231657Z 28024KT 08/M11 A2997 RMK A01 T00831113  RH  024%=      5-min Rain = 0
KHO1 231658Z 28022G29KT 08/M11 A2997 RMK A01 T00831113  RH  024%=      5-min Rain = 0
KHO1 231659Z 28023KT 08/M12 A2997 RMK A01 T00841115  RH  023%=      5-min Rain = 0
KHO1 231700Z 26027G33KT 08/M12 A2997 RMK A01 T00831116  RH  023%=      5-min Rain = 0
KHO1 231701Z 27024KT 08/M11 A2997 RMK A01 T00841114  RH  023%=      5-min Rain = 0
KHO1 231702Z 27023G30KT 08/M12 A2997 RMK A01 T00841116  RH  023%=      5-min Rain = 0
KHO1 231703Z 27020KT 09/M11 A2997 RMK A01 T00861113  RH  023%=      5-min Rain = 0
KHO1 231704Z 28024KT 09/M11 A2997 RMK A01 T00871112  RH  023%=      5-min Rain = 0
KHO1 231705Z 28020KT 09/M11 A2997 RMK A01 T00861113  RH  023%=      5-min Rain = 0
KHO1 231706Z 27022KT 09/M12 A2997 RMK A01 T00861115  RH  023%=      5-min Rain = 0
KHO1 231707Z 27023G28KT 09/M12 A2997 RMK A01 T00871115  RH  023%=      5-min Rain = 0
KHO1 231708Z 29019G24KT 09/M12 A2997 RMK A01 T00881116  RH  022%=      5-min Rain = 0
KHO1 231709Z 27024KT 09/M12 A2997 RMK A01 T00901115  RH  022%=      5-min Rain = 0
KHO1 231710Z 27020KT 09/M12 A2997 RMK A01 T00921116  RH  022%=      5-min Rain = 0
KHO1 231711Z 28024KT 09/M12 A2997 RMK A01 T00921117  RH  022%=      5-min Rain = 0
KHO1 231712Z 28022G27KT 09/M12 A2997 RMK A01 T00921118  RH  021%=      5-min Rain = 0
KHO1 231713Z 27023G30KT 09/M12 A2997 RMK A01 T00931118  RH  021%=      5-min Rain = 0
KHO1 231714Z 27023G28KT 09/M12 A2997 RMK A01 T00941119  RH  021%=      5-min Rain = 0
KHO1 231715Z 27026G32KT 10/M12 A2997 RMK A01 T00951123  RH  020%=      5-min Rain = 0
KHO1 231716Z 27023G32KT 10/M13 A2997 RMK A01 T00951125  RH  020%=      5-min Rain = 0
KHO1 231717Z 28024KT 10/M13 A2997 RMK A01 T00971126  RH  019%=      5-min Rain = 0
KHO1 231718Z 28023KT 10/M13 A2997 RMK A01 T00961127  RH  019%=      5-min Rain = 0
KHO1 231719Z 28020G29KT 10/M12 A2997 RMK A01 T00971124  RH  020%=      5-min Rain = 0
KHO1 231720Z 28025G30KT 10/M13 A2997 RMK A01 T00971129  RH  019%=      5-min Rain = 0
KHO1 231721Z 28026KT 10/M13 A2997 RMK A01 T00971129  RH  019%=      5-min Rain = 0
KHO1 231722Z 28027G32KT 10/M13 A2997 RMK A01 T00981130  RH  019%=      5-min Rain = 0
KHO1 231723Z 27025G31KT 10/M13 A2997 RMK A01 T00961130  RH  019%=      5-min Rain = 0
KHO1 231724Z 27023KT 10/M13 A2997 RMK A01 T00971128  RH  019%=      5-min Rain = 0
KHO1 231725Z 27025KT 10/M13 A2997 RMK A01 T00991129  RH  019%=      5-min Rain = 0
KHO1 231726Z 27023G28KT 10/M13 A2998 RMK A01 T00991128  RH  019%=      5-min Rain = 0
KHO1 231727Z 29020G28KT 10/M13 A2997 RMK A01 T01001128  RH  019%=      5-min Rain = 0
KHO1 231728Z 28026G33KT 10/M14 A2998 RMK A01 T01001137  RH  017%=      5-min Rain = 0
KHO1 231729Z 30026G33KT 10/M14 A2997 RMK A01 T00981135  RH  018%=      5-min Rain = 0
KHO1 231730Z 29020G25KT 10/M13 A2997 RMK A01 T01001133  RH  018%=      5-min Rain = 0
KHO1 231731Z 29020G27KT 10/M13 A2997 RMK A01 T01021131  RH  018%=      5-min Rain = 0
KHO1 231732Z 29023G28KT 11/M13 A2998 RMK A01 T01061133  RH  017%=      5-min Rain = 0
KHO1 231733Z 29026KT 10/M14 A2998 RMK A01 T01041139  RH  017%=      5-min Rain = 0
KHO1 231734Z 30024G29KT 10/M14 A2998 RMK A01 T01021139  RH  017%=      5-min Rain = 0
KHO1 231735Z 30024KT 10/M14 A2997 RMK A01 T01011138  RH  017%=      5-min Rain = 0
KHO1 231736Z 29021KT 10/M14 A2998 RMK A01 T01021135  RH  017%=      5-min Rain = 0
KHO1 231737Z 29020G27KT 11/M13 A2998 RMK A01 T01061132  RH  017%=      5-min Rain = 0
KHO1 231738Z 30024G30KT 11/M14 A2998 RMK A01 T01081136  RH  017%=      5-min Rain = 0
KHO1 231739Z 28024G34KT 11/M14 A2998 RMK A01 T01071138  RH  017%=      5-min Rain = 0
KHO1 231740Z 28024G31KT 11/M14 A2998 RMK A01 T01051138  RH  017%=      5-min Rain = 0
KHO1 231741Z 29022KT 11/M14 A2998 RMK A01 T01051137  RH  017%=      5-min Rain = 0
KHO1 231742Z 28027KT 11/M14 A2998 RMK A01 T01051143  RH  016%=      5-min Rain = 0
KHO1 231743Z 29022G28KT 10/M14 A2998 RMK A01 T01041140  RH  017%=      5-min Rain = 0
KHO1 231744Z 29024G31KT 10/M14 A2998 RMK A01 T01041141  RH  016%=      5-min Rain = 0
KHO1 231745Z 28030KT 10/M14 A2998 RMK A01 T01041141  RH  016%=      5-min Rain = 0
KHO1 231746Z 28028G35KT 10/M14 A2998 RMK A01 T01041144  RH  016%=      5-min Rain = 0
KHO1 231747Z 28026G31KT 10/M15 A2998 RMK A01 T01011146  RH  016%=      5-min Rain = 0
KHO1 231748Z 28030G37KT 10/M14 A2998 RMK A01 T01021144  RH  016%=      5-min Rain = 0
KHO1 231749Z 28027G33KT 10/M15 A2999 RMK A01 T01021146  RH  016%=      5-min Rain = 0
KHO1 231750Z 28024G33KT 10/M14 A2998 RMK A01 T01021144  RH  016%=      5-min Rain = 0
KHO1 231751Z 28026G35KT 10/M14 A2999 RMK A01 T01041144  RH  016%=      5-min Rain = 0
KHO1 231752Z 28025G31KT 10/M14 A2998 RMK A01 T01041143  RH  016%=      5-min Rain = 0
KHO1 231753Z 29026G31KT 11/M14 A2999 RMK A01 T01051142  RH  016%=      5-min Rain = 0
KHO1 231754Z 28028KT 11/M14 A2999 RMK A01 T01061142  RH  016%=      5-min Rain = 0
KHO1 231755Z 28024KT 11/M14 A2999 RMK A01 T01061141  RH  016%=      5-min Rain = 0
KHO1 231756Z 28022G27KT 11/M14 A2999 RMK A01 T01051143  RH  016%=      5-min Rain = 0
KHO1 231757Z 28020G27KT 11/M14 A2998 RMK A01 T01061141  RH  016%=      5-min Rain = 0
KHO1 231758Z 28026G32KT 11/M14 A2999 RMK A01 T01091144  RH  015%=      5-min Rain = 0
KHO1 231759Z 29024G29KT 11/M15 A2999 RMK A01 T01071145  RH  016%=      5-min Rain = 0
KHO1 231800Z 28021G27KT 11/M15 A2999 RMK A01 T01081145  RH  015%=      5-min Rain = 0
KHO1 231801Z 28028G34KT 11/M15 A2999 RMK A01 T01081149  RH  015%=      5-min Rain = 0
KHO1 231802Z 29029G34KT 11/M15 A2999 RMK A01 T01091152  RH  014%=      5-min Rain = 0
KHO1 231803Z 30026G31KT 11/M16 A2999 RMK A01 T01081155  RH  014%=      5-min Rain = 0
KHO1 231804Z 30021KT 11/M15 A2999 RMK A01 T01081151  RH  015%=      5-min Rain = 0
KHO1 231805Z 30022G28KT 11/M15 A2999 RMK A01 T01101149  RH  015%=      5-min Rain = 0
KHO1 231806Z 30020KT 11/M15 A2999 RMK A01 T01111147  RH  015%=      5-min Rain = 0
KHO1 231807Z 30026G32KT 11/M15 A2999 RMK A01 T01131148  RH  015%=      5-min Rain = 0
KHO1 231808Z 30023G28KT 11/M15 A2999 RMK A01 T01101153  RH  014%=      5-min Rain = 0
KHO1 231809Z 29018KT 11/M15 A2999 RMK A01 T01111149  RH  015%=      5-min Rain = 0
KHO1 231810Z 30024G30KT 11/M15 A2999 RMK A01 T01141149  RH  014%=      5-min Rain = 0
KHO1 231811Z 30023KT 11/M15 A2998 RMK A01 T01141152  RH  014%=      5-min Rain = 0
KHO1 231812Z 29021G26KT 11/M15 A2999 RMK A01 T01131150  RH  014%=      5-min Rain = 0
KHO1 231813Z 29020G26KT 12/M15 A2999 RMK A01 T01161148  RH  014%=      5-min Rain = 0
KHO1 231814Z 30025G31KT 12/M15 A2999 RMK A01 T01171153  RH  014%=      5-min Rain = 0
KHO1 231815Z 30030G39KT 12/M16 A2999 RMK A01 T01151155  RH  013%=      5-min Rain = 0
KHO1 231816Z 30025G30KT 12/M16 A2999 RMK A01 T01151155  RH  014%=      5-min Rain = 0
KHO1 231817Z 29026G31KT 12/M16 A2999 RMK A01 T01151158  RH  013%=      5-min Rain = 0
KHO1 231818Z 30025G30KT 11/M16 A2999 RMK A01 T01141155  RH  014%=      5-min Rain = 0
KHO1 231819Z 30020G29KT 11/M15 A2999 RMK A01 T01141154  RH  014%=      5-min Rain = 0
KHO1 231820Z 30023G29KT 12/M15 A2999 RMK A01 T01191150  RH  014%=      5-min Rain = 0
KHO1 231821Z 30024KT 12/M16 A2999 RMK A01 T01191155  RH  013%=      5-min Rain = 0
KHO1 231822Z 29021KT 12/M16 A2999 RMK A01 T01151157  RH  013%=      5-min Rain = 0
KHO1 231823Z 30025G31KT 12/M16 A2999 RMK A01 T01161156  RH  013%=      5-min Rain = 0
KHO1 231824Z 30022G27KT 12/M16 A2999 RMK A01 T01161156  RH  013%=      5-min Rain = 0
KHO1 231825Z 30022G28KT 12/M16 A2999 RMK A01 T01191158  RH  013%=      5-min Rain = 0
KHO1 231826Z 30027G33KT 12/M16 A2999 RMK A01 T01221160  RH  012%=      5-min Rain = 0
KHO1 231827Z 29025G31KT 12/M16 A2999 RMK A01 T01201163  RH  012%=      5-min Rain = 0
KHO1 231828Z 29026G31KT 12/M16 A2999 RMK A01 T01181164  RH  012%=      5-min Rain = 0
KHO1 231829Z 30026G31KT 12/M17 A2999 RMK A01 T01191165  RH  012%=      5-min Rain = 0
KHO1 231830Z 30024G36KT 12/M16 A2999 RMK A01 T01191162  RH  012%=      5-min Rain = 0
KHO1 231831Z 31028G37KT 12/M17 A2999 RMK A01 T01191167  RH  012%=      5-min Rain = 0
KHO1 231832Z 30025G32KT 12/M16 A2999 RMK A01 T01201162  RH  012%=      5-min Rain = 0
KHO1 231833Z 30030KT 12/M17 A2999 RMK A01 T01201166  RH  012%=      5-min Rain = 0
KHO1 231834Z 30028KT 12/M17 A2999 RMK A01 T01181167  RH  012%=      5-min Rain = 0
KHO1 231835Z 31026G31KT 12/M17 A2999 RMK A01 T01191167  RH  012%=      5-min Rain = 0
KHO1 231836Z 31024G30KT 12/M17 A2999 RMK A01 T01191167  RH  012%=      5-min Rain = 0
KHO1 231837Z 30027G33KT 12/M17 A2999 RMK A01 T01201167  RH  012%=      5-min Rain = 0
KHO1 231838Z 30024KT 12/M17 A2999 RMK A01 T01191168  RH  012%=      5-min Rain = 0
KHO1 231839Z 30024G30KT 12/M17 A2999 RMK A01 T01181168  RH  012%=      5-min Rain = 0
KHO1 231840Z 30026G32KT 12/M17 A2999 RMK A01 T01201166  RH  012%=      5-min Rain = 0
KHO1 231841Z 29025G30KT 12/M17 A2999 RMK A01 T01201166  RH  012%=      5-min Rain = 0
KHO1 231842Z 30022G27KT 12/M17 A2999 RMK A01 T01181165  RH  012%=      5-min Rain = 0
KHO1 231843Z 30023KT 12/M16 A2999 RMK A01 T01201164  RH  012%=      5-min Rain = 0
KHO1 231844Z 29022KT 12/M17 A2999 RMK A01 T01211166  RH  012%=      5-min Rain = 0
KHO1 231845Z 29022G27KT 12/M17 A2999 RMK A01 T01201167  RH  012%=      5-min Rain = 0
KHO1 231846Z 29024G29KT 12/M17 A2999 RMK A01 T01201167  RH  012%=      5-min Rain = 0
KHO1 231847Z 29023G28KT 12/M17 A2999 RMK A01 T01211167  RH  012%=      5-min Rain = 0
KHO1 231848Z 28024G29KT 12/M17 A2999 RMK A01 T01201168  RH  012%=      5-min Rain = 0
KHO1 231849Z 30019G25KT 12/M16 A2999 RMK A01 T01221164  RH  012%=      5-min Rain = 0
KHO1 231850Z 30019G25KT 12/M16 A2999 RMK A01 T01241161  RH  012%=      5-min Rain = 0
KHO1 231851Z 31020G25KT 13/M16 A2999 RMK A01 T01251161  RH  012%=      5-min Rain = 0
KHO1 231852Z 30024KT 12/M16 A2999 RMK A01 T01241163  RH  012%=      5-min Rain = 0
KHO1 231853Z 30019KT 12/M16 A2999 RMK A01 T01241161  RH  012%=      5-min Rain = 0
KHO1 231854Z 31023G31KT 13/M16 A2999 RMK A01 T01271160  RH  012%=      5-min Rain = 0
KHO1 231855Z 30023KT 13/M16 A2999 RMK A01 T01261164  RH  012%=      5-min Rain = 0
KHO1 231856Z 31025KT 12/M17 A2999 RMK A01 T01241165  RH  012%=      5-min Rain = 0
KHO1 231857Z 31020G28KT 12/M16 A2999 RMK A01 T01241163  RH  012%=      5-min Rain = 0
KHO1 231858Z 30028G34KT 12/M17 A2999 RMK A01 T01241166  RH  012%=      5-min Rain = 0
KHO1 231859Z 30026KT 12/M17 A2999 RMK A01 T01231168  RH  012%=      5-min Rain = 0
KHO1 231900Z 31026KT 12/M17 A2999 RMK A01 T01221170  RH  011%=      5-min Rain = 0
KHO1 231901Z 30026KT 12/M17 A2999 RMK A01 T01221169  RH  012%=      5-min Rain = 0
KHO1 231902Z 30021KT 12/M17 A2999 RMK A01 T01221169  RH  011%=      5-min Rain = 0
KHO1 231903Z 30013KT 12/M17 A2999 RMK A01 T01231167  RH  012%=      5-min Rain = 0
KHO1 231904Z 29021G27KT 13/M17 A2999 RMK A01 T01251166  RH  012%=      5-min Rain = 0
KHO1 231905Z 28025G30KT 13/M17 A2999 RMK A01 T01251172  RH  011%=      5-min Rain = 0
KHO1 231906Z 29025KT 12/M17 A2999 RMK A01 T01221172  RH  011%=      5-min Rain = 0
KHO1 231907Z 30021G26KT 13/M17 A2999 RMK A01 T01251167  RH  011%=      5-min Rain = 0
KHO1 231908Z 30024G32KT 13/M17 A2999 RMK A01 T01291166  RH  011%=      5-min Rain = 0
KHO1 231909Z 30024G29KT 13/M17 A2999 RMK A01 T01291167  RH  011%=      5-min Rain = 0
KHO1 231910Z 31019G25KT 13/M17 A2999 RMK A01 T01271166  RH  011%=      5-min Rain = 0
KHO1 231911Z 31020G27KT 13/M16 A2998 RMK A01 T01301163  RH  011%=      5-min Rain = 0
KHO1 231912Z 29021G28KT 13/M16 A2999 RMK A01 T01321163  RH  011%=      5-min Rain = 0
KHO1 231913Z 29023G30KT 13/M17 A2999 RMK A01 T01321166  RH  011%=      5-min Rain = 0
KHO1 231914Z 30020KT 13/M17 A2999 RMK A01 T01301166  RH  011%=      5-min Rain = 0
KHO1 231915Z 30018KT 13/M17 A2999 RMK A01 T01291165  RH  011%=      5-min Rain = 0
KHO1 231916Z 29021KT 13/M16 A2999 RMK A01 T01291164  RH  011%=      5-min Rain = 0
KHO1 231917Z 29021KT 13/M17 A2999 RMK A01 T01301166  RH  011%=      5-min Rain = 0
KHO1 231918Z 29019G25KT 13/M17 A2999 RMK A01 T01291166  RH  011%=      5-min Rain = 0
KHO1 231919Z 29021G26KT 13/M17 A2999 RMK A01 T01301167  RH  011%=      5-min Rain = 0
KHO1 231920Z 29019G25KT 13/M17 A2999 RMK A01 T01301165  RH  011%=      5-min Rain = 0
KHO1 231921Z 29023G32KT 13/M17 A2999 RMK A01 T01331167  RH  011%=      5-min Rain = 0
KHO1 231922Z 30026KT 13/M18 A2999 RMK A01 T01301178  RH  010%=      5-min Rain = 0
KHO1 231923Z 32017KT 13/M17 A2999 RMK A01 T01301172  RH  011%=      5-min Rain = 0
KHO1 231924Z 32025G31KT 13/M17 A2999 RMK A01 T01311173  RH  010%=      5-min Rain = 0
KHO1 231925Z 31022KT 13/M17 A2999 RMK A01 T01291174  RH  011%=      5-min Rain = 0
KHO1 231926Z 31022G28KT 13/M17 A2998 RMK A01 T01281170  RH  011%=      5-min Rain = 0
KHO1 231927Z 32020KT 13/M17 A2998 RMK A01 T01311165  RH  011%=      5-min Rain = 0
KHO1 231928Z 33024G29KT 13/M17 A2998 RMK A01 T01311168  RH  011%=      5-min Rain = 0
KHO1 231929Z 32022G27KT 13/M17 A2998 RMK A01 T01291169  RH  011%=      5-min Rain = 0
KHO1 231930Z 32025G38KT 13/M17 A2998 RMK A01 T01301170  RH  011%=      5-min Rain = 0
KHO1 231931Z 32019G24KT 13/M17 A2999 RMK A01 T01291172  RH  011%=      5-min Rain = 0
KHO1 231932Z 32028G33KT 13/M18 A2998 RMK A01 T01301176  RH  010%=      5-min Rain = 0
KHO1 231933Z 32028KT 13/M18 A2998 RMK A01 T01281177  RH  010%=      5-min Rain = 0
KHO1 231934Z 32022G30KT 13/M17 A2998 RMK A01 T01271173  RH  011%=      5-min Rain = 0
KHO1 231935Z 32027G33KT 13/M18 A2998 RMK A01 T01271176  RH  010%=      5-min Rain = 0
KHO1 231936Z 32026G31KT 13/M18 A2998 RMK A01 T01261175  RH  011%=      5-min Rain = 0
KHO1 231937Z 31027G34KT 13/M18 A2998 RMK A01 T01281179  RH  010%=      5-min Rain = 0
KHO1 231938Z 31027G32KT 13/M18 A2999 RMK A01 T01291181  RH  010%=      5-min Rain = 0
KHO1 231939Z 31023G28KT 13/M18 A2999 RMK A01 T01301179  RH  010%=      5-min Rain = 0
KHO1 231940Z 31028G37KT 13/M18 A2999 RMK A01 T01311179  RH  010%=      5-min Rain = 0
KHO1 231941Z 31027G32KT 13/M18 A2998 RMK A01 T01291179  RH  010%=      5-min Rain = 0
KHO1 231942Z 31026G34KT 13/M18 A2999 RMK A01 T01281179  RH  010%=      5-min Rain = 0
KHO1 231943Z 31023G29KT 13/M18 A2999 RMK A01 T01271180  RH  010%=      5-min Rain = 0
KHO1 231944Z 32024G32KT 13/M18 A2999 RMK A01 T01291176  RH  010%=      5-min Rain = 0
KHO1 231945Z 31025G33KT 13/M18 A2999 RMK A01 T01281176  RH  010%=      5-min Rain = 0
KHO1 231946Z 31028G36KT 13/M17 A2999 RMK A01 T01271171  RH  011%=      5-min Rain = 0
KHO1 231947Z 31024G32KT 13/M17 A2999 RMK A01 T01271168  RH  011%=      5-min Rain = 0
KHO1 231948Z 30026KT 13/M18 A2999 RMK A01 T01291183  RH  010%=      5-min Rain = 0
KHO1 231949Z 30027G32KT 13/M18 A2999 RMK A01 T01281184  RH  010%=      5-min Rain = 0
KHO1 231950Z 30029G35KT 13/M18 A2999 RMK A01 T01271179  RH  010%=      5-min Rain = 0
KHO1 231951Z 30023G29KT 13/M18 A2999 RMK A01 T01281176  RH  010%=      5-min Rain = 0
KHO1 231952Z 31017G23KT 13/M17 A2999 RMK A01 T01301173  RH  010%=      5-min Rain = 0
KHO1 231953Z 30022G33KT 13/M17 A2999 RMK A01 T01331174  RH  010%=      5-min Rain = 0
KHO1 231954Z 30027G34KT 13/M18 A2999 RMK A01 T01331177  RH  010%=      5-min Rain = 0
KHO1 231955Z 31020KT 13/M17 A2999 RMK A01 T01331169  RH  011%=      5-min Rain = 0
KHO1 231956Z 30021G29KT 13/M17 A2999 RMK A01 T01341174  RH  010%=      5-min Rain = 0
KHO1 231957Z 30023G29KT 13/M18 A2999 RMK A01 T01311182  RH  010%=      5-min Rain = 0
KHO1 231958Z 31023G29KT 13/M17 A2999 RMK A01 T01311172  RH  011%=      5-min Rain = 0
KHO1 231959Z 32024G30KT 13/M17 A2999 RMK A01 T01301168  RH  011%=      5-min Rain = 0
KHO1 232000Z 31020G29KT 13/M16 A2999 RMK A01 T01301164  RH  011%=      5-min Rain = 0
KHO1 232001Z 32020KT 13/M16 A2999 RMK A01 T01291161  RH  012%=      5-min Rain = 0
KHO1 232002Z 31023G29KT 13/M16 A2999 RMK A01 T01301158  RH  012%=      5-min Rain = 0
KHO1 232003Z 32019G27KT 13/M16 A2999 RMK A01 T01291158  RH  012%=      5-min Rain = 0
KHO1 232004Z 32022G27KT 13/M16 A2999 RMK A01 T01281158  RH  012%=      5-min Rain = 0
KHO1 232005Z 32025G30KT 13/M16 A2999 RMK A01 T01261161  RH  012%=      5-min Rain = 0
KHO1 232006Z 32024KT 13/M16 A2999 RMK A01 T01261163  RH  012%=      5-min Rain = 0
KHO1 232007Z 33026G31KT 13/M16 A2999 RMK A01 T01261162  RH  012%=      5-min Rain = 0
KHO1 232008Z 33026G31KT 12/M16 A2999 RMK A01 T01241164  RH  012%=      5-min Rain = 0
KHO1 232009Z 32022KT 13/M17 A2999 RMK A01 T01251165  RH  012%=      5-min Rain = 0
KHO1 232010Z 32022G27KT 13/M17 A2999 RMK A01 T01251168  RH  011%=      5-min Rain = 0
KHO1 232011Z 31020G26KT 13/M16 A2999 RMK A01 T01271164  RH  012%=      5-min Rain = 0
KHO1 232012Z 31028G33KT 13/M16 A2999 RMK A01 T01301164  RH  011%=      5-min Rain = 0
KHO1 232013Z 31020G25KT 13/M16 A2999 RMK A01 T01291162  RH  012%=      5-min Rain = 0
KHO1 232014Z 32021G27KT 13/M16 A2999 RMK A01 T01321160  RH  012%=      5-min Rain = 0
KHO1 232015Z 31021KT 13/M16 A30 RMK A01 T01311164  RH  011%=      5-min Rain = 0
KHO1 232016Z 32023KT 13/M17 A2999 RMK A01 T01301167  RH  011%=      5-min Rain = 0
KHO1 232017Z 32027G37KT 13/M17 A2999 RMK A01 T01281169  RH  011%=      5-min Rain = 0
KHO1 232018Z 31026G34KT 13/M17 A30 RMK A01 T01281166  RH  011%=      5-min Rain = 0
KHO1 232019Z 31024KT 13/M17 A30 RMK A01 T01281167  RH  011%=      5-min Rain = 0
KHO1 232020Z 30023KT 13/M17 A30 RMK A01 T01281166  RH  011%=      5-min Rain = 0
KHO1 232021Z 32020G29KT 13/M16 A30 RMK A01 T01291162  RH  012%=      5-min Rain = 0
KHO1 232022Z 31024G31KT 13/M17 A2999 RMK A01 T01311165  RH  011%=      5-min Rain = 0
KHO1 232023Z 32028G34KT 13/M17 A2999 RMK A01 T01311171  RH  011%=      5-min Rain = 0
KHO1 232024Z 31027G32KT 13/M17 A30 RMK A01 T01281170  RH  011%=      5-min Rain = 0
KHO1 232025Z 31024G30KT 13/M17 A30 RMK A01 T01271166  RH  011%=      5-min Rain = 0
KHO1 232026Z 31020G27KT 13/M16 A30 RMK A01 T01291161  RH  012%=      5-min Rain = 0
KHO1 232027Z 32027G34KT 13/M17 A30 RMK A01 T01301167  RH  011%=      5-min Rain = 0
KHO1 232028Z 31026KT 13/M17 A30 RMK A01 T01281171  RH  011%=      5-min Rain = 0
KHO1 232029Z 32025KT 13/M17 A30 RMK A01 T01271172  RH  011%=      5-min Rain = 0
KHO1 232030Z 32024G30KT 13/M17 A30 RMK A01 T01261174  RH  011%=      5-min Rain = 0
KHO1 232031Z 32027KT 13/M18 A2999 RMK A01 T01251175  RH  011%=      5-min Rain = 0
KHO1 232032Z 32023G29KT 13/M17 A30 RMK A01 T01281169  RH  011%=      5-min Rain = 0
KHO1 232033Z 31025G30KT 13/M16 A30 RMK A01 T01271161  RH  012%=      5-min Rain = 0
KHO1 232034Z 31020KT 13/M16 A30 RMK A01 T01261161  RH  012%=      5-min Rain = 0
KHO1 232035Z 32020G28KT 13/M16 A30 RMK A01 T01271156  RH  012%=      5-min Rain = 0
KHO1 232036Z 31024KT 13/M16 A3001 RMK A01 T01281158  RH  012%=      5-min Rain = 0
KHO1 232037Z 31022G29KT 13/M16 A30 RMK A01 T01271159  RH  012%=      5-min Rain = 0
KHO1 232038Z 32021KT 13/M16 A30 RMK A01 T01291155  RH  012%=      5-min Rain = 0
KHO1 232039Z 32024G29KT 13/M16 A30 RMK A01 T01281159  RH  012%=      5-min Rain = 0
KHO1 232040Z 32026KT 13/M17 A30 RMK A01 T01251165  RH  012%=      5-min Rain = 0
KHO1 232041Z 32024G32KT 13/M16 A30 RMK A01 T01251164  RH  012%=      5-min Rain = 0
KHO1 232042Z 32026KT 13/M16 A30 RMK A01 T01251161  RH  012%=      5-min Rain = 0
KHO1 232043Z 32025G32KT 13/M16 A30 RMK A01 T01251157  RH  012%=      5-min Rain = 0
KHO1 232044Z 33023G28KT 13/M16 A30 RMK A01 T01251158  RH  012%=      5-min Rain = 0
KHO1 232045Z 32023G30KT 12/M16 A30 RMK A01 T01241161  RH  012%=      5-min Rain = 0
KHO1 232046Z 31023KT 13/M17 A30 RMK A01 T01251165  RH  012%=      5-min Rain = 0
KHO1 232047Z 32021G27KT 13/M16 A30 RMK A01 T01261164  RH  012%=      5-min Rain = 0
KHO1 232048Z 30020G29KT 13/M16 A3001 RMK A01 T01301158  RH  012%=      5-min Rain = 0
KHO1 232049Z 31024KT 13/M16 A3001 RMK A01 T01301160  RH  012%=      5-min Rain = 0
KHO1 232050Z 32024KT 13/M16 A3001 RMK A01 T01281159  RH  012%=      5-min Rain = 0
KHO1 232051Z 31025G31KT 13/M16 A3001 RMK A01 T01261160  RH  012%=      5-min Rain = 0
KHO1 232052Z 32022G27KT 13/M16 A3001 RMK A01 T01261161  RH  012%=      5-min Rain = 0
KHO1 232053Z 31023KT 13/M16 A3001 RMK A01 T01261163  RH  012%=      5-min Rain = 0
KHO1 232054Z 32023G28KT 13/M17 A3001 RMK A01 T01251165  RH  012%=      5-min Rain = 0
KHO1 232055Z 31024G31KT 13/M17 A3001 RMK A01 T01261165  RH  012%=      5-min Rain = 0
KHO1 232056Z 31017G25KT 13/M17 A3001 RMK A01 T01261165  RH  012%=      5-min Rain = 0
KHO1 232057Z 31022G29KT 13/M16 A3001 RMK A01 T01291159  RH  012%=      5-min Rain = 0
KHO1 232058Z 31020G25KT 13/M16 A3001 RMK A01 T01301157  RH  012%=      5-min Rain = 0
KHO1 232059Z 31024G31KT 13/M16 A3001 RMK A01 T01301161  RH  012%=      5-min Rain = 0
KHO1 232100Z 32021KT 13/M16 A3001 RMK A01 T01281162  RH  012%=      5-min Rain = 0
KHO1 232101Z 31020G28KT 13/M16 A3001 RMK A01 T01261163  RH  012%=      5-min Rain = 0
KHO1 232102Z 31024G29KT 13/M16 A3001 RMK A01 T01271161  RH  012%=      5-min Rain = 0
KHO1 232103Z 32022G27KT 13/M16 A3001 RMK A01 T01271162  RH  012%=      5-min Rain = 0
KHO1 232104Z 32021KT 13/M16 A3001 RMK A01 T01281158  RH  012%=      5-min Rain = 0
KHO1 232105Z 32015KT 13/M15 A3001 RMK A01 T01301153  RH  012%=      5-min Rain = 0
KHO1 232106Z 32016G22KT 13/M15 A3001 RMK A01 T01331153  RH  012%=      5-min Rain = 0
KHO1 232107Z 33023G31KT 13/M16 A3001 RMK A01 T01311155  RH  012%=      5-min Rain = 0
KHO1 232108Z 31025G31KT 13/M16 A3001 RMK A01 T01281159  RH  012%=      5-min Rain = 0
KHO1 232109Z 31022G28KT 13/M16 A3002 RMK A01 T01271161  RH  012%=      5-min Rain = 0
KHO1 232110Z 32020G28KT 13/M16 A3001 RMK A01 T01271158  RH  012%=      5-min Rain = 0
KHO1 232111Z 33022G28KT 13/M16 A3001 RMK A01 T01251157  RH  012%=      5-min Rain = 0
KHO1 232112Z 33024KT 12/M16 A3001 RMK A01 T01241158  RH  012%=      5-min Rain = 0
KHO1 232113Z 32018G24KT 12/M16 A3002 RMK A01 T01221156  RH  013%=      5-min Rain = 0
KHO1 232114Z 32015KT 13/M15 A3002 RMK A01 T01251152  RH  013%=      5-min Rain = 0
KHO1 232115Z 31019G26KT 13/M15 A3002 RMK A01 T01291154  RH  013%=      5-min Rain = 0
KHO1 232116Z 31021G26KT 13/M15 A3002 RMK A01 T01311153  RH  012%=      5-min Rain = 0
KHO1 232117Z 31020KT 13/M16 A3002 RMK A01 T01301157  RH  012%=      5-min Rain = 0
KHO1 232118Z 32019KT 13/M16 A3002 RMK A01 T01271160  RH  012%=      5-min Rain = 0
KHO1 232119Z 32019KT 13/M16 A3002 RMK A01 T01261158  RH  012%=      5-min Rain = 0
KHO1 232120Z 32017KT 13/M15 A3002 RMK A01 T01291151  RH  013%=      5-min Rain = 0
KHO1 232121Z 31017KT 13/M15 A3002 RMK A01 T01291148  RH  013%=      5-min Rain = 0
KHO1 232122Z 32018KT 13/M15 A3002 RMK A01 T01301152  RH  013%=      5-min Rain = 0
KHO1 232123Z 31022KT 13/M16 A3002 RMK A01 T01301157  RH  012%=      5-min Rain = 0
KHO1 232124Z 31020KT 13/M16 A3002 RMK A01 T01271156  RH  012%=      5-min Rain = 0
KHO1 232125Z 32017KT 13/M16 A3002 RMK A01 T01261155  RH  013%=      5-min Rain = 0
KHO1 232126Z 31016KT 13/M15 A3002 RMK A01 T01271152  RH  013%=      5-min Rain = 0
KHO1 232127Z 31018G25KT 13/M15 A3002 RMK A01 T01281152  RH  013%=      5-min Rain = 0
KHO1 232128Z 31023KT 13/M16 A3002 RMK A01 T01281156  RH  012%=      5-min Rain = 0
KHO1 232129Z 32020KT 13/M15 A3002 RMK A01 T01271154  RH  013%=      5-min Rain = 0
KHO1 232130Z 31018G24KT 13/M15 A3002 RMK A01 T01261153  RH  013%=      5-min Rain = 0
KHO1 232131Z 31018G24KT 13/M15 A3002 RMK A01 T01271152  RH  013%=      5-min Rain = 0
KHO1 232132Z 32022G28KT 13/M15 A3002 RMK A01 T01261154  RH  013%=      5-min Rain = 0
KHO1 232133Z 33021KT 13/M15 A3002 RMK A01 T01261153  RH  013%=      5-min Rain = 0
KHO1 232134Z 32022KT 12/M15 A3002 RMK A01 T01241154  RH  013%=      5-min Rain = 0
KHO1 232135Z 31021KT 12/M15 A3002 RMK A01 T01241152  RH  013%=      5-min Rain = 0
KHO1 232136Z 31018G23KT 13/M15 A3002 RMK A01 T01261151  RH  013%=      5-min Rain = 0
KHO1 232137Z 30016KT 13/M15 A3002 RMK A01 T01271151  RH  013%=      5-min Rain = 0
KHO1 232138Z 33018KT 13/M15 A3002 RMK A01 T01281152  RH  013%=      5-min Rain = 0
KHO1 232139Z 33017G22KT 13/M15 A3002 RMK A01 T01281152  RH  013%=      5-min Rain = 0
KHO1 232140Z 33020G27KT 13/M15 A3002 RMK A01 T01291154  RH  012%=      5-min Rain = 0
KHO1 232141Z 32019KT 13/M16 A3002 RMK A01 T01271155  RH  013%=      5-min Rain = 0
KHO1 232142Z 30017G22KT 13/M15 A3002 RMK A01 T01281151  RH  013%=      5-min Rain = 0
KHO1 232143Z 31019G25KT 13/M15 A3002 RMK A01 T01291152  RH  013%=      5-min Rain = 0
KHO1 232144Z 31017G24KT 13/M15 A3002 RMK A01 T01291151  RH  013%=      5-min Rain = 0
KHO1 232145Z 31018KT 13/M15 A3002 RMK A01 T01281151  RH  013%=      5-min Rain = 0
KHO1 232146Z 31017G22KT 13/M15 A3002 RMK A01 T01271151  RH  013%=      5-min Rain = 0
KHO1 232147Z 29016KT 13/M15 A3002 RMK A01 T01291154  RH  012%=      5-min Rain = 0
KHO1 232148Z 30021G32KT 13/M16 A3002 RMK A01 T01311156  RH  012%=      5-min Rain = 0
KHO1 232149Z 30017G22KT 13/M16 A3002 RMK A01 T01311155  RH  012%=      5-min Rain = 0
KHO1 232150Z 30018KT 13/M16 A3002 RMK A01 T01331156  RH  012%=      5-min Rain = 0
KHO1 232151Z 30015KT 13/M16 A3002 RMK A01 T01331156  RH  012%=      5-min Rain = 0
KHO1 232152Z 30015KT 13/M16 A3002 RMK A01 T01331156  RH  012%=      5-min Rain = 0
KHO1 232153Z 33018KT 13/M16 A3002 RMK A01 T01331159  RH  012%=      5-min Rain = 0
KHO1 232154Z 33016KT 13/M16 A3002 RMK A01 T01281164  RH  012%=      5-min Rain = 0
KHO1 232155Z 31014KT 13/M16 A3002 RMK A01 T01271162  RH  012%=      5-min Rain = 0
KHO1 232156Z 31014KT 13/M16 A3002 RMK A01 T01271161  RH  012%=      5-min Rain = 0
KHO1 232157Z 31016G21KT 13/M16 A3002 RMK A01 T01281160  RH  012%=      5-min Rain = 0
KHO1 232158Z 31018G26KT 13/M16 A3002 RMK A01 T01291158  RH  012%=      5-min Rain = 0
KHO1 232159Z 32020KT 13/M16 A3002 RMK A01 T01301160  RH  012%=      5-min Rain = 0
KHO1 232200Z 30016G22KT 13/M16 A3002 RMK A01 T01311158  RH  012%=      5-min Rain = 0
KHO1 232201Z 30018G24KT 13/M16 A3003 RMK A01 T01341160  RH  011%=      5-min Rain = 0
KHO1 232202Z 32022G27KT 13/M17 A3002 RMK A01 T01321166  RH  011%=      5-min Rain = 0
KHO1 232203Z 32019KT 13/M17 A3002 RMK A01 T01301166  RH  011%=      5-min Rain = 0
KHO1 232204Z 31019G26KT 13/M16 A3003 RMK A01 T01301164  RH  011%=      5-min Rain = 0
KHO1 232205Z 31017G23KT 13/M16 A3003 RMK A01 T01311164  RH  011%=      5-min Rain = 0
KHO1 232206Z 31020KT 13/M17 A3003 RMK A01 T01321165  RH  011%=      5-min Rain = 0
KHO1 232207Z 31017G22KT 13/M16 A3003 RMK A01 T01311162  RH  011%=      5-min Rain = 0
KHO1 232208Z 32017KT 13/M16 A3003 RMK A01 T01321162  RH  011%=      5-min Rain = 0
KHO1 232209Z 31016KT 13/M16 A3003 RMK A01 T01321163  RH  011%=      5-min Rain = 0
KHO1 232210Z 32013KT 13/M16 A3003 RMK A01 T01321160  RH  012%=      5-min Rain = 0
KHO1 232211Z 32016G21KT 13/M16 A3003 RMK A01 T01331161  RH  011%=      5-min Rain = 0
KHO1 232212Z 32022KT 13/M16 A3003 RMK A01 T01321163  RH  011%=      5-min Rain = 0
KHO1 232213Z 32018KT 13/M16 A3003 RMK A01 T01301163  RH  011%=      5-min Rain = 0
KHO1 232214Z 33019KT 13/M16 A3002 RMK A01 T01281162  RH  012%=      5-min Rain = 0
KHO1 232215Z 33017KT 13/M16 A3002 RMK A01 T01281161  RH  012%=      5-min Rain = 0
KHO1 232216Z 33017G24KT 13/M16 A3002 RMK A01 T01281161  RH  012%=      5-min Rain = 0
KHO1 232217Z 34019G25KT 13/M16 A3002 RMK A01 T01281159  RH  012%=      5-min Rain = 0
KHO1 232218Z 33020KT 13/M16 A3002 RMK A01 T01281159  RH  012%=      5-min Rain = 0
KHO1 232219Z 33018KT 13/M16 A3002 RMK A01 T01271159  RH  012%=      5-min Rain = 0
KHO1 232220Z 32018G24KT 13/M16 A3002 RMK A01 T01261160  RH  012%=      5-min Rain = 0
KHO1 232221Z 33018G24KT 13/M16 A3002 RMK A01 T01251159  RH  012%=      5-min Rain = 0
KHO1 232222Z 33018KT 13/M16 A3002 RMK A01 T01271156  RH  012%=      5-min Rain = 0
KHO1 232223Z 31013G18KT 13/M15 A3003 RMK A01 T01301153  RH  013%=      5-min Rain = 0
KHO1 232224Z 31017G23KT 13/M16 A3003 RMK A01 T01331157  RH  012%=      5-min Rain = 0
KHO1 232225Z 32017G23KT 13/M16 A3003 RMK A01 T01331159  RH  012%=      5-min Rain = 0
KHO1 232226Z 31018G23KT 13/M16 A3003 RMK A01 T01321163  RH  011%=      5-min Rain = 0
KHO1 232227Z 32017G22KT 13/M16 A3003 RMK A01 T01311163  RH  011%=      5-min Rain = 0
KHO1 232228Z 32017G22KT 13/M16 A3003 RMK A01 T01291164  RH  011%=      5-min Rain = 0
KHO1 232229Z 32017KT 13/M16 A3003 RMK A01 T01291164  RH  011%=      5-min Rain = 0
KHO1 232230Z 32019G24KT 13/M16 A3003 RMK A01 T01281162  RH  012%=      5-min Rain = 0
KHO1 232231Z 32019KT 13/M16 A3003 RMK A01 T01281159  RH  012%=      5-min Rain = 0
KHO1 232232Z 31015KT 13/M16 A3003 RMK A01 T01291158  RH  012%=      5-min Rain = 0
KHO1 232233Z 32017G22KT 13/M16 A3003 RMK A01 T01301159  RH  012%=      5-min Rain = 0
KHO1 232234Z 32016KT 13/M16 A3003 RMK A01 T01291159  RH  012%=      5-min Rain = 0
KHO1 232235Z 31015KT 13/M16 A3003 RMK A01 T01291157  RH  012%=      5-min Rain = 0
KHO1 232236Z 32018KT 13/M16 A3003 RMK A01 T01301157  RH  012%=      5-min Rain = 0
KHO1 232237Z 32017G22KT 13/M16 A3003 RMK A01 T01301157  RH  012%=      5-min Rain = 0
KHO1 232238Z 33018KT 13/M16 A3003 RMK A01 T01301157  RH  012%=      5-min Rain = 0
KHO1 232239Z 33019KT 13/M16 A3003 RMK A01 T01291158  RH  012%=      5-min Rain = 0
KHO1 232240Z 31018G23KT 13/M16 A3004 RMK A01 T01291157  RH  012%=      5-min Rain = 0
KHO1 232241Z 32016G21KT 13/M16 A3004 RMK A01 T01291157  RH  012%=      5-min Rain = 0
KHO1 232242Z 32016KT 13/M16 A3004 RMK A01 T01301156  RH  012%=      5-min Rain = 0
KHO1 232243Z 32017G22KT 13/M16 A3004 RMK A01 T01291159  RH  012%=      5-min Rain = 0
KHO1 232244Z 32016KT 13/M16 A3004 RMK A01 T01281160  RH  012%=      5-min Rain = 0
KHO1 232245Z 33016KT 13/M16 A3004 RMK A01 T01271159  RH  012%=      5-min Rain = 0
KHO1 232246Z 32016KT 13/M16 A3004 RMK A01 T01271159  RH  012%=      5-min Rain = 0
KHO1 232247Z 31012KT 13/M16 A3004 RMK A01 T01281160  RH  012%=      5-min Rain = 0
KHO1 232248Z 32018KT 13/M16 A3004 RMK A01 T01291161  RH  012%=      5-min Rain = 0
KHO1 232249Z 31017G22KT 13/M16 A3004 RMK A01 T01281162  RH  012%=      5-min Rain = 0
KHO1 232250Z 32019KT 13/M16 A3004 RMK A01 T01281163  RH  012%=      5-min Rain = 0
KHO1 232251Z 32015KT 13/M16 A3004 RMK A01 T01261163  RH  012%=      5-min Rain = 0
KHO1 232252Z 32016KT 13/M16 A3004 RMK A01 T01261160  RH  012%=      5-min Rain = 0
KHO1 232253Z 32016KT 13/M16 A3004 RMK A01 T01261160  RH  012%=      5-min Rain = 0
KHO1 232254Z 32017KT 13/M16 A3004 RMK A01 T01261161  RH  012%=      5-min Rain = 0
KHO1 232255Z 30015KT 13/M16 A3004 RMK A01 T01271161  RH  012%=      5-min Rain = 0
KHO1 232256Z 32014KT 13/M16 A3004 RMK A01 T01271158  RH  012%=      5-min Rain = 0
KHO1 232257Z 33016KT 13/M16 A3004 RMK A01 T01281159  RH  012%=      5-min Rain = 0
KHO1 232258Z 33015KT 13/M16 A3004 RMK A01 T01271159  RH  012%=      5-min Rain = 0
KHO1 232259Z 33016KT 13/M16 A3004 RMK A01 T01261159  RH  012%=      5-min Rain = 0
KHO1 232300Z 33015G20KT 13/M16 A3004 RMK A01 T01261159  RH  012%=      5-min Rain = 0
KHO1 232301Z 33014G19KT 13/M16 A3004 RMK A01 T01261159  RH  012%=      5-min Rain = 0
KHO1 232302Z 33016KT 13/M16 A3004 RMK A01 T01251160  RH  012%=      5-min Rain = 0
KHO1 232303Z 32017KT 13/M16 A3004 RMK A01 T01251162  RH  012%=      5-min Rain = 0
KHO1 232304Z 33016KT 13/M16 A3004 RMK A01 T01251163  RH  012%=      5-min Rain = 0
KHO1 232305Z 32015KT 13/M16 A3004 RMK A01 T01251162  RH  012%=      5-min Rain = 0
KHO1 232306Z 33014KT 13/M16 A3004 RMK A01 T01261161  RH  012%=      5-min Rain = 0
KHO1 232307Z 33016KT 13/M16 A3004 RMK A01 T01261162  RH  012%=      5-min Rain = 0
KHO1 232308Z 32015KT 13/M16 A3004 RMK A01 T01261160  RH  012%=      5-min Rain = 0
KHO1 232309Z 32013KT 13/M16 A3004 RMK A01 T01271157  RH  012%=      5-min Rain = 0
KHO1 232310Z 32015G21KT 13/M16 A3005 RMK A01 T01281159  RH  012%=      5-min Rain = 0
KHO1 232311Z 31014KT 13/M16 A3005 RMK A01 T01271162  RH  012%=      5-min Rain = 0
KHO1 232312Z 30013KT 13/M16 A3005 RMK A01 T01271162  RH  012%=      5-min Rain = 0
KHO1 232313Z 31012KT 13/M16 A3005 RMK A01 T01281161  RH  012%=      5-min Rain = 0
KHO1 232314Z 32015KT 13/M17 A3005 RMK A01 T01281165  RH  011%=      5-min Rain = 0
KHO1 232315Z 32014KT 13/M17 A3005 RMK A01 T01271167  RH  011%=      5-min Rain = 0
KHO1 232316Z 32013KT 13/M17 A3005 RMK A01 T01271166  RH  011%=      5-min Rain = 0
KHO1 232317Z 31015KT 13/M17 A3005 RMK A01 T01261166  RH  012%=      5-min Rain = 0
KHO1 232318Z 31014KT 13/M16 A3005 RMK A01 T01261164  RH  012%=      5-min Rain = 0
KHO1 232319Z 32015KT 13/M16 A3005 RMK A01 T01261162  RH  012%=      5-min Rain = 0
KHO1 232320Z 33014KT 13/M16 A3005 RMK A01 T01251161  RH  012%=      5-min Rain = 0
KHO1 232321Z 33012KT 13/M16 A3005 RMK A01 T01261159  RH  012%=      5-min Rain = 0
KHO1 232322Z 32011KT 13/M16 A3005 RMK A01 T01261157  RH  012%=      5-min Rain = 0
KHO1 232323Z 33011G16KT 13/M16 A3005 RMK A01 T01271158  RH  012%=      5-min Rain = 0
KHO1 232324Z 33013KT 13/M16 A3005 RMK A01 T01261158  RH  012%=      5-min Rain = 0
KHO1 232325Z 33014G19KT 13/M16 A3005 RMK A01 T01261160  RH  012%=      5-min Rain = 0
KHO1 232326Z 33015KT 13/M16 A3005 RMK A01 T01251161  RH  012%=      5-min Rain = 0
KHO1 232327Z 33015G21KT 13/M16 A3005 RMK A01 T01251162  RH  012%=      5-min Rain = 0
KHO1 232328Z 32015KT 12/M16 A3005 RMK A01 T01241162  RH  012%=      5-min Rain = 0
KHO1 232329Z 32013KT 12/M16 A3005 RMK A01 T01241160  RH  012%=      5-min Rain = 0
KHO1 232330Z 33011KT 12/M16 A3005 RMK A01 T01241160  RH  012%=      5-min Rain = 0
KHO1 232331Z 33014KT 12/M16 A3005 RMK A01 T01241163  RH  012%=      5-min Rain = 0
KHO1 232332Z 33011KT 12/M16 A3005 RMK A01 T01231162  RH  012%=      5-min Rain = 0
KHO1 232333Z 32013G20KT 12/M16 A3005 RMK A01 T01241160  RH  012%=      5-min Rain = 0
KHO1 232334Z 32013G18KT 12/M16 A3005 RMK A01 T01231163  RH  012%=      5-min Rain = 0
KHO1 232335Z 33014KT 12/M16 A3005 RMK A01 T01231164  RH  012%=      5-min Rain = 0
KHO1 232336Z 32015KT 12/M17 A3005 RMK A01 T01221166  RH  012%=      5-min Rain = 0
KHO1 232337Z 32016KT 12/M17 A3006 RMK A01 T01211167  RH  012%=      5-min Rain = 0
KHO1 232338Z 32014KT 12/M17 A3006 RMK A01 T01211167  RH  012%=      5-min Rain = 0
KHO1 232339Z 32011KT 12/M17 A3006 RMK A01 T01201165  RH  012%=      5-min Rain = 0
KHO1 232340Z 32013KT 12/M16 A3006 RMK A01 T01211163  RH  012%=      5-min Rain = 0
KHO1 232341Z 32013KT 12/M16 A3006 RMK A01 T01221162  RH  012%=      5-min Rain = 0
KHO1 232342Z 32015KT 12/M16 A3006 RMK A01 T01211162  RH  012%=      5-min Rain = 0
KHO1 232343Z 32014G19KT 12/M16 A3006 RMK A01 T01211161  RH  012%=      5-min Rain = 0
KHO1 232344Z 33015KT 12/M16 A3006 RMK A01 T01201162  RH  012%=      5-min Rain = 0
KHO1 232345Z 33014KT 12/M16 A3006 RMK A01 T01201162  RH  012%=      5-min Rain = 0
KHO1 232346Z 32012KT 12/M16 A3006 RMK A01 T01201161  RH  013%=      5-min Rain = 0
KHO1 232347Z 32013KT 12/M16 A3006 RMK A01 T01201162  RH  012%=      5-min Rain = 0
KHO1 232348Z 32012KT 12/M16 A3006 RMK A01 T01201161  RH  012%=      5-min Rain = 0
KHO1 232349Z 33014KT 12/M16 A3006 RMK A01 T01201162  RH  012%=      5-min Rain = 0
KHO1 232350Z 32014KT 12/M16 A3006 RMK A01 T01191162  RH  012%=      5-min Rain = 0
KHO1 232351Z 32013KT 12/M16 A3006 RMK A01 T01191163  RH  012%=      5-min Rain = 0
KHO1 232352Z 32010KT 12/M16 A3006 RMK A01 T01191161  RH  013%=      5-min Rain = 0
KHO1 232353Z 32012KT 12/M16 A3006 RMK A01 T01191162  RH  012%=      5-min Rain = 0
KHO1 232354Z 32010KT 12/M16 A3006 RMK A01 T01191160  RH  013%=      5-min Rain = 0
KHO1 232355Z 31012KT 12/M16 A3006 RMK A01 T01191161  RH  013%=      5-min Rain = 0
KHO1 232356Z 31011KT 12/M16 A3006 RMK A01 T01191162  RH  012%=      5-min Rain = 0
KHO1 232357Z 31011KT 12/M16 A3006 RMK A01 T01191162  RH  012%=      5-min Rain = 0
KHO1 232358Z 32009KT 12/M16 A3006 RMK A01 T01191161  RH  013%=      5-min Rain = 0
KHO1 232359Z 32011G17KT 12/M16 A3007 RMK A01 T01191161  RH  013%=      5-min Rain = 0
KHO1 240000Z 31010KT 12/M16 A3007 RMK A01 T01181161  RH  013%=      5-min Rain = 0
KHO1 240001Z 31011KT 12/M16 A3007 RMK A01 T01181160  RH  013%=      5-min Rain = 0
KHO1 240002Z 32009KT 12/M16 A3007 RMK A01 T01181160  RH  013%=      5-min Rain = 0
KHO1 240003Z 32010KT 12/M16 A3007 RMK A01 T01181159  RH  013%=      5-min Rain = 0
KHO1 240004Z 33010KT 12/M16 A3007 RMK A01 T01171157  RH  013%=      5-min Rain = 0
KHO1 240005Z 32011KT 12/M16 A3007 RMK A01 T01171157  RH  013%=      5-min Rain = 0
KHO1 240006Z 32008KT 12/M16 A3007 RMK A01 T01171156  RH  013%=      5-min Rain = 0
KHO1 240007Z 32009KT 12/M16 A3007 RMK A01 T01171156  RH  013%=      5-min Rain = 0
KHO1 240008Z 32009KT 12/M16 A3007 RMK A01 T01161157  RH  013%=      5-min Rain = 0
KHO1 240009Z 31008KT 12/M16 A3007 RMK A01 T01161157  RH  013%=      5-min Rain = 0
KHO1 240010Z 31009KT 12/M16 A3007 RMK A01 T01161157  RH  013%=      5-min Rain = 0
KHO1 240011Z 31008KT 12/M16 A3007 RMK A01 T01151158  RH  013%=      5-min Rain = 0
KHO1 240012Z 31007KT 12/M16 A3007 RMK A01 T01151159  RH  013%=      5-min Rain = 0
KHO1 240013Z 31007KT 12/M16 A3007 RMK A01 T01151159  RH  013%=      5-min Rain = 0
KHO1 240014Z 31006KT 12/M16 A3007 RMK A01 T01151158  RH  013%=      5-min Rain = 0
KHO1 240015Z 31006KT 12/M16 A3008 RMK A01 T01151158  RH  013%=      5-min Rain = 0
KHO1 240016Z 31008KT 11/M16 A3008 RMK A01 T01141160  RH  013%=      5-min Rain = 0
KHO1 240017Z 30006KT 11/M16 A3008 RMK A01 T01141160  RH  013%=      5-min Rain = 0
KHO1 240018Z 31007KT 11/M16 A3008 RMK A01 T01141159  RH  013%=      5-min Rain = 0
KHO1 240019Z 30008KT 11/M16 A3008 RMK A01 T01131160  RH  013%=      5-min Rain = 0
KHO1 240020Z 30008KT 11/M16 A3008 RMK A01 T01131162  RH  013%=      5-min Rain = 0
KHO1 240021Z 30008KT 11/M16 A3008 RMK A01 T01131163  RH  013%=      5-min Rain = 0
KHO1 240022Z 29009KT 11/M17 A3008 RMK A01 T01121165  RH  013%=      5-min Rain = 0
KHO1 240023Z 29008KT 11/M17 A3008 RMK A01 T01121165  RH  013%=      5-min Rain = 0
KHO1 240024Z 29008KT 11/M17 A3008 RMK A01 T01111166  RH  013%=      5-min Rain = 0
KHO1 240025Z 29008KT 11/M17 A3008 RMK A01 T01111167  RH  013%=      5-min Rain = 0
KHO1 240026Z 29008KT 11/M17 A3008 RMK A01 T01101167  RH  013%=      5-min Rain = 0
KHO1 240027Z 30007KT 11/M17 A3008 RMK A01 T01101167  RH  013%=      5-min Rain = 0
KHO1 240028Z 30007KT 11/M17 A3008 RMK A01 T01101167  RH  013%=      5-min Rain = 0
KHO1 240029Z 29007KT 11/M17 A3008 RMK A01 T01091166  RH  013%=      5-min Rain = 0
KHO1 240030Z 30007KT 11/M17 A3009 RMK A01 T01091165  RH  013%=      5-min Rain = 0
KHO1 240031Z 30006KT 11/M16 A3009 RMK A01 T01081164  RH  013%=      5-min Rain = 0
KHO1 240032Z 30006KT 11/M16 A3009 RMK A01 T01071163  RH  013%=      5-min Rain = 0
KHO1 240033Z 30006KT 11/M16 A3009 RMK A01 T01051163  RH  013%=      5-min Rain = 0
KHO1 240034Z 30007KT 10/M16 A3009 RMK A01 T01041163  RH  014%=      5-min Rain = 0
KHO1 240035Z 30007KT 10/M16 A3009 RMK A01 T01031163  RH  014%=      5-min Rain = 0
KHO1 240036Z 30006KT 10/M16 A3009 RMK A01 T01031162  RH  014%=      5-min Rain = 0
KHO1 240037Z 30006KT 10/M16 A3009 RMK A01 T01021162  RH  014%=      5-min Rain = 0
KHO1 240038Z 30006KT 10/M16 A3009 RMK A01 T01011162  RH  014%=      5-min Rain = 0
KHO1 240039Z 30006KT 10/M16 A3009 RMK A01 T01001162  RH  014%=      5-min Rain = 0
KHO1 240040Z 30006KT 10/M16 A3009 RMK A01 T00991162  RH  014%=      5-min Rain = 0
KHO1 240041Z 30007KT 10/M16 A3009 RMK A01 T00991163  RH  014%=      5-min Rain = 0
KHO1 240042Z 30007KT 10/M16 A3009 RMK A01 T00981163  RH  014%=      5-min Rain = 0
KHO1 240043Z 30007KT 10/M16 A3009 RMK A01 T00981163  RH  014%=      5-min Rain = 0
KHO1 240044Z 30006KT 10/M16 A301 RMK A01 T00981162  RH  014%=      5-min Rain = 0
KHO1 240045Z 30007KT 10/M16 A301 RMK A01 T00971162  RH  014%=      5-min Rain = 0
KHO1 240046Z 30006KT 10/M16 A301 RMK A01 T00961162  RH  015%=      5-min Rain = 0
KHO1 240047Z 31007KT 09/M16 A301 RMK A01 T00941162  RH  015%=      5-min Rain = 0
KHO1 240048Z 31007KT 09/M16 A301 RMK A01 T00921162  RH  015%=      5-min Rain = 0
KHO1 240049Z 31007KT 09/M16 A301 RMK A01 T00911162  RH  015%=      5-min Rain = 0
KHO1 240050Z 31008KT 09/M16 A301 RMK A01 T00901162  RH  015%=      5-min Rain = 0
KHO1 240051Z 31008KT 09/M16 A301 RMK A01 T00901163  RH  015%=      5-min Rain = 0
KHO1 240052Z 31008KT 09/M16 A301 RMK A01 T00901163  RH  015%=      5-min Rain = 0
KHO1 240053Z 31009KT 09/M16 A301 RMK A01 T00891162  RH  015%=      5-min Rain = 0
KHO1 240054Z 30009KT 09/M16 A3009 RMK A01 T00891161  RH  015%=      5-min Rain = 0
KHO1 240055Z 31009KT 09/M16 A301 RMK A01 T00901160  RH  015%=      5-min Rain = 0
KHO1 240056Z 31008KT 09/M16 A301 RMK A01 T00891159  RH  016%=      5-min Rain = 0
KHO1 240057Z 31008KT 09/M16 A301 RMK A01 T00891158  RH  016%=      5-min Rain = 0
KHO1 240058Z 31008KT 09/M16 A301 RMK A01 T00881157  RH  016%=      5-min Rain = 0
KHO1 240059Z 31008KT 09/M16 A301 RMK A01 T00881157  RH  016%=      5-min Rain = 0
KHO1 240100Z 31007KT 09/M16 A301 RMK A01 T00881156  RH  016%=      5-min Rain = 0
KHO1 240101Z 31008KT 09/M16 A301 RMK A01 T00881156  RH  016%=      5-min Rain = 0
KHO1 240102Z 31008KT 09/M16 A301 RMK A01 T00871155  RH  016%=      5-min Rain = 0
KHO1 240103Z 31007KT 09/M16 A301 RMK A01 T00871155  RH  016%=      5-min Rain = 0
KHO1 240104Z 31007KT 09/M16 A301 RMK A01 T00861155  RH  016%=      5-min Rain = 0
KHO1 240105Z 31006KT 09/M16 A301 RMK A01 T00861155  RH  017%=      5-min Rain = 0
KHO1 240106Z 31006KT 08/M16 A301 RMK A01 T00841155  RH  017%=      5-min Rain = 0
KHO1 240107Z 30006KT 08/M16 A301 RMK A01 T00841155  RH  017%=      5-min Rain = 0
KHO1 240108Z 31006KT 08/M15 A301 RMK A01 T00831154  RH  017%=      5-min Rain = 0
KHO1 240109Z 30005KT 08/M15 A301 RMK A01 T00821154  RH  017%=      5-min Rain = 0
KHO1 240110Z 30006KT 08/M15 A301 RMK A01 T00821154  RH  017%=      5-min Rain = 0
KHO1 240111Z 30006KT 08/M16 A301 RMK A01 T00811155  RH  017%=      5-min Rain = 0
KHO1 240112Z 30006KT 08/M16 A301 RMK A01 T00801155  RH  017%=      5-min Rain = 0
KHO1 240113Z 30006KT 08/M16 A301 RMK A01 T00791155  RH  017%=      5-min Rain = 0
KHO1 240114Z 30006KT 08/M15 A3011 RMK A01 T00791154  RH  017%=      5-min Rain = 0
KHO1 240115Z 30006KT 08/M15 A3011 RMK A01 T00781153  RH  018%=      5-min Rain = 0
KHO1 240116Z 29005KT 08/M15 A3011 RMK A01 T00771152  RH  018%=      5-min Rain = 0
KHO1 240117Z 29005KT 08/M15 A3011 RMK A01 T00761152  RH  018%=      5-min Rain = 0
KHO1 240118Z 29005KT 08/M15 A3011 RMK A01 T00751154  RH  018%=      5-min Rain = 0
KHO1 240119Z 29005KT 07/M16 A3011 RMK A01 T00731155  RH  018%=      5-min Rain = 0
KHO1 240120Z 29004KT 07/M16 A3011 RMK A01 T00721155  RH  018%=      5-min Rain = 0
KHO1 240121Z 28004KT 07/M16 A3011 RMK A01 T00711156  RH  018%=      5-min Rain = 0
KHO1 240122Z 29003KT 07/M16 A3011 RMK A01 T00691156  RH  018%=      5-min Rain = 0
KHO1 240123Z 28003KT 07/M16 A3011 RMK A01 T00671157  RH  018%=      5-min Rain = 0
KHO1 240124Z 28003KT 07/M16 A3012 RMK A01 T00661158  RH  018%=      5-min Rain = 0
KHO1 240125Z 28003KT 07/M16 A3012 RMK A01 T00651158  RH  018%=      5-min Rain = 0
KHO1 240126Z 28003KT 07/M16 A3012 RMK A01 T00651158  RH  019%=      5-min Rain = 0
KHO1 240127Z 27002KT 06/M16 A3012 RMK A01 T00641158  RH  019%=      5-min Rain = 0
KHO1 240128Z 27001KT 06/M16 A3012 RMK A01 T00641158  RH  019%=      5-min Rain = 0
KHO1 240129Z 26002KT 06/M16 A3012 RMK A01 T00641158  RH  019%=      5-min Rain = 0
KHO1 240130Z 26002KT 06/M16 A3012 RMK A01 T00631158  RH  019%=      5-min Rain = 0
KHO1 240131Z 27002KT 06/M16 A3012 RMK A01 T00621159  RH  019%=      5-min Rain = 0
KHO1 240132Z 28002KT 06/M16 A3012 RMK A01 T00611159  RH  019%=      5-min Rain = 0
KHO1 240133Z 27002KT 06/M16 A3012 RMK A01 T00611158  RH  019%=      5-min Rain = 0
KHO1 240134Z 28003KT 06/M16 A3013 RMK A01 T00611157  RH  019%=      5-min Rain = 0
KHO1 240135Z 28004KT 06/M16 A3013 RMK A01 T00611157  RH  019%=      5-min Rain = 0
KHO1 240136Z 28005KT 06/M16 A3013 RMK A01 T00611156  RH  019%=      5-min Rain = 0
KHO1 240137Z 29004KT 06/M16 A3013 RMK A01 T00621156  RH  019%=      5-min Rain = 0
KHO1 240138Z 29005KT 06/M16 A3013 RMK A01 T00631156  RH  019%=      5-min Rain = 0
KHO1 240139Z 29005KT 06/M16 A3013 RMK A01 T00641156  RH  019%=      5-min Rain = 0
KHO1 240140Z 29004KT 06/M16 A3013 RMK A01 T00641156  RH  019%=      5-min Rain = 0
KHO1 240141Z 29004KT 06/M16 A3013 RMK A01 T00631156  RH  019%=      5-min Rain = 0
KHO1 240142Z 29004KT 06/M16 A3013 RMK A01 T00621156  RH  019%=      5-min Rain = 0
KHO1 240143Z 29004KT 06/M16 A3013 RMK A01 T00621156  RH  019%=      5-min Rain = 0
KHO1 240144Z 29004KT 06/M16 A3013 RMK A01 T00611156  RH  019%=      5-min Rain = 0
KHO1 240145Z 29004KT 06/M16 A3013 RMK A01 T00611156  RH  019%=      5-min Rain = 0
KHO1 240146Z 28004KT 06/M16 A3014 RMK A01 T00601156  RH  020%=      5-min Rain = 0
KHO1 240147Z 28003KT 06/M16 A3014 RMK A01 T00601155  RH  020%=      5-min Rain = 0
KHO1 240148Z 27003KT 06/M16 A3014 RMK A01 T00591155  RH  020%=      5-min Rain = 0
KHO1 240149Z 27003KT 06/M15 A3014 RMK A01 T00591154  RH  020%=      5-min Rain = 0
KHO1 240150Z 27004KT 06/M15 A3014 RMK A01 T00591154  RH  020%=      5-min Rain = 0
KHO1 240151Z 27003KT 06/M15 A3014 RMK A01 T00601154  RH  020%=      5-min Rain = 0
KHO1 240152Z 26004KT 06/M15 A3014 RMK A01 T00591154  RH  020%=      5-min Rain = 0
KHO1 240153Z 26003KT 06/M15 A3014 RMK A01 T00591154  RH  020%=      5-min Rain = 0
KHO1 240154Z 26003KT 06/M15 A3014 RMK A01 T00581154  RH  020%=      5-min Rain = 0
KHO1 240155Z 26004KT 06/M15 A3014 RMK A01 T00581154  RH  020%=      5-min Rain = 0
KHO1 240156Z 26004KT 06/M16 A3014 RMK A01 T00571155  RH  020%=      5-min Rain = 0
KHO1 240157Z 26004KT 06/M16 A3014 RMK A01 T00571155  RH  020%=      5-min Rain = 0
KHO1 240158Z 26005KT 06/M16 A3014 RMK A01 T00561156  RH  020%=      5-min Rain = 0
KHO1 240159Z 26004KT 06/M16 A3014 RMK A01 T00551156  RH  020%=      5-min Rain = 0
KHO1 240200Z 26004KT 06/M16 A3014 RMK A01 T00551155  RH  020%=      5-min Rain = 0
KHO1 240201Z 26004KT 06/M16 A3014 RMK A01 T00551155  RH  020%=      5-min Rain = 0
KHO1 240202Z 26004KT 06/M16 A3014 RMK A01 T00551155  RH  020%=      5-min Rain = 0
KHO1 240203Z 26004KT 06/M15 A3014 RMK A01 T00561154  RH  020%=      5-min Rain = 0
KHO1 240204Z 27004KT 06/M15 A3015 RMK A01 T00561154  RH  020%=      5-min Rain = 0
KHO1 240205Z 27003KT 06/M15 A3015 RMK A01 T00561154  RH  020%=      5-min Rain = 0
KHO1 240206Z 27003KT 06/M15 A3015 RMK A01 T00561154  RH  020%=      5-min Rain = 0
KHO1 240207Z 28003KT 06/M15 A3015 RMK A01 T00571153  RH  020%=      5-min Rain = 0
KHO1 240208Z 28004KT 06/M15 A3015 RMK A01 T00571153  RH  020%=      5-min Rain = 0
KHO1 240209Z 29004KT 06/M15 A3015 RMK A01 T00571152  RH  021%=      5-min Rain = 0
KHO1 240210Z 30004KT 06/M15 A3015 RMK A01 T00571152  RH  021%=      5-min Rain = 0
KHO1 240211Z 30004KT 06/M15 A3015 RMK A01 T00581151  RH  021%=      5-min Rain = 0
KHO1 240212Z 30004KT 06/M15 A3015 RMK A01 T00591151  RH  021%=      5-min Rain = 0
KHO1 240213Z 31005KT 06/M15 A3015 RMK A01 T00601150  RH  020%=      5-min Rain = 0
KHO1 240214Z 30005KT 06/M15 A3015 RMK A01 T00611149  RH  020%=      5-min Rain = 0
KHO1 240215Z 30005KT 06/M15 A3015 RMK A01 T00631149  RH  020%=      5-min Rain = 0
KHO1 240216Z 30005KT 06/M15 A3015 RMK A01 T00631148  RH  020%=      5-min Rain = 0
KHO1 240217Z 30005KT 06/M15 A3015 RMK A01 T00631148  RH  020%=      5-min Rain = 0
KHO1 240218Z 30006KT 06/M15 A3015 RMK A01 T00621148  RH  021%=      5-min Rain = 0
KHO1 240219Z 30006KT 06/M15 A3015 RMK A01 T00621148  RH  021%=      5-min Rain = 0
KHO1 240220Z 30006KT 06/M15 A3015 RMK A01 T00611147  RH  021%=      5-min Rain = 0
KHO1 240221Z 30007KT 06/M15 A3015 RMK A01 T00601146  RH  021%=      5-min Rain = 0
KHO1 240222Z 30007KT 06/M15 A3015 RMK A01 T00591146  RH  021%=      5-min Rain = 0
KHO1 240223Z 30006KT 06/M15 A3015 RMK A01 T00571147  RH  022%=      5-min Rain = 0
KHO1 240224Z 30007KT 06/M15 A3015 RMK A01 T00551148  RH  022%=      5-min Rain = 0
KHO1 240225Z 30007KT 05/M15 A3015 RMK A01 T00531148  RH  022%=      5-min Rain = 0
KHO1 240226Z 30008KT 05/M15 A3015 RMK A01 T00521147  RH  022%=      5-min Rain = 0
KHO1 240227Z 30008KT 05/M15 A3015 RMK A01 T00511147  RH  022%=      5-min Rain = 0
KHO1 240228Z 31008KT 05/M15 A3015 RMK A01 T00501146  RH  023%=      5-min Rain = 0
KHO1 240229Z 31008KT 05/M15 A3015 RMK A01 T00481145  RH  023%=      5-min Rain = 0
KHO1 240230Z 31010KT 05/M14 A3015 RMK A01 T00471143  RH  024%=      5-min Rain = 0
KHO1 240231Z 31013KT 05/M14 A3014 RMK A01 T00471140  RH  024%=      5-min Rain = 0
KHO1 240232Z 31016KT 05/M14 A3014 RMK A01 T00541136  RH  024%=      5-min Rain = 0
KHO1 240233Z 32017KT 06/M13 A3014 RMK A01 T00641134  RH  023%=      5-min Rain = 0
KHO1 240234Z 32018KT 07/M13 A3014 RMK A01 T00721133  RH  022%=      5-min Rain = 0
KHO1 240235Z 32017KT 08/M13 A3014 RMK A01 T00761133  RH  021%=      5-min Rain = 0
KHO1 240236Z 32017KT 08/M13 A3014 RMK A01 T00781133  RH  021%=      5-min Rain = 0
KHO1 240237Z 32017KT 08/M13 A3014 RMK A01 T00791133  RH  021%=      5-min Rain = 0
KHO1 240238Z 32015KT 08/M13 A3014 RMK A01 T00801134  RH  020%=      5-min Rain = 0
KHO1 240239Z 32014KT 08/M13 A3014 RMK A01 T00801133  RH  021%=      5-min Rain = 0
KHO1 240240Z 31013KT 08/M13 A3015 RMK A01 T00781133  RH  021%=      5-min Rain = 0
KHO1 240241Z 32013KT 08/M13 A3015 RMK A01 T00771134  RH  021%=      5-min Rain = 0
KHO1 240242Z 32013KT 08/M13 A3015 RMK A01 T00761134  RH  021%=      5-min Rain = 0
KHO1 240243Z 32014G19KT 08/M13 A3014 RMK A01 T00761134  RH  021%=      5-min Rain = 0
KHO1 240244Z 33015KT 08/M13 A3014 RMK A01 T00761132  RH  021%=      5-min Rain = 0
KHO1 240245Z 33016KT 08/M13 A3014 RMK A01 T00781132  RH  021%=      5-min Rain = 0
KHO1 240246Z 33014KT 08/M13 A3014 RMK A01 T00791132  RH  021%=      5-min Rain = 0
KHO1 240247Z 33015G22KT 08/M13 A3014 RMK A01 T00791132  RH  021%=      5-min Rain = 0
KHO1 240248Z 33016KT 08/M13 A3014 RMK A01 T00801133  RH  021%=      5-min Rain = 0
KHO1 240249Z 33016G21KT 08/M13 A3014 RMK A01 T00811133  RH  020%=      5-min Rain = 0
KHO1 240250Z 33015G20KT 08/M13 A3014 RMK A01 T00821133  RH  020%=      5-min Rain = 0
KHO1 240251Z 33015KT 08/M13 A3014 RMK A01 T00821134  RH  020%=      5-min Rain = 0
KHO1 240252Z 33013G18KT 08/M13 A3014 RMK A01 T00821134  RH  020%=      5-min Rain = 0
KHO1 240253Z 33013G20KT 08/M13 A3014 RMK A01 T00821134  RH  020%=      5-min Rain = 0
KHO1 240254Z 34012G17KT 08/M14 A3014 RMK A01 T00831135  RH  020%=      5-min Rain = 0
KHO1 240255Z 33014KT 08/M14 A3014 RMK A01 T00831135  RH  020%=      5-min Rain = 0
KHO1 240256Z 34014KT 08/M14 A3014 RMK A01 T00831135  RH  020%=      5-min Rain = 0
KHO1 240257Z 34013KT 08/M14 A3014 RMK A01 T00821135  RH  020%=      5-min Rain = 0
KHO1 240258Z 34014KT 08/M14 A3014 RMK A01 T00811135  RH  020%=      5-min Rain = 0
KHO1 240259Z 34014KT 08/M14 A3014 RMK A01 T00811135  RH  020%=      5-min Rain = 0
KHO1 240300Z 34014G20KT 08/M14 A3014 RMK A01 T00811135  RH  020%=      5-min Rain = 0
KHO1 240301Z 34016KT 08/M14 A3014 RMK A01 T00811136  RH  020%=      5-min Rain = 0
KHO1 240302Z 34014KT 08/M14 A3014 RMK A01 T00821136  RH  020%=      5-min Rain = 0
KHO1 240303Z 34012G17KT 08/M14 A3015 RMK A01 T00811135  RH  020%=      5-min Rain = 0
KHO1 240304Z 33012G17KT 08/M14 A3015 RMK A01 T00801135  RH  020%=      5-min Rain = 0
KHO1 240305Z 33011KT 08/M14 A3015 RMK A01 T00801135  RH  020%=      5-min Rain = 0
KHO1 240306Z 33012KT 08/M14 A3015 RMK A01 T00801135  RH  020%=      5-min Rain = 0
KHO1 240307Z 33011KT 08/M14 A3015 RMK A01 T00801135  RH  020%=      5-min Rain = 0
KHO1 240308Z 33012KT 08/M14 A3015 RMK A01 T00801135  RH  020%=      5-min Rain = 0
KHO1 240309Z 33012KT 08/M14 A3015 RMK A01 T00791135  RH  020%=      5-min Rain = 0
KHO1 240310Z 34013KT 08/M14 A3015 RMK A01 T00791136  RH  020%=      5-min Rain = 0
KHO1 240311Z 34011KT 08/M14 A3015 RMK A01 T00781135  RH  020%=      5-min Rain = 0
KHO1 240312Z 34011KT 08/M14 A3015 RMK A01 T00771135  RH  021%=      5-min Rain = 0
KHO1 240313Z 34014KT 08/M14 A3015 RMK A01 T00761135  RH  021%=      5-min Rain = 0
KHO1 240314Z 34012KT 08/M14 A3015 RMK A01 T00761135  RH  021%=      5-min Rain = 0
KHO1 240315Z 34012KT 08/M14 A3015 RMK A01 T00761135  RH  021%=      5-min Rain = 0
KHO1 240316Z 34012KT 08/M14 A3015 RMK A01 T00761136  RH  021%=      5-min Rain = 0
KHO1 240317Z 34012KT 08/M14 A3015 RMK A01 T00761135  RH  021%=      5-min Rain = 0
KHO1 240318Z 33011KT 08/M14 A3016 RMK A01 T00761135  RH  021%=      5-min Rain = 0
KHO1 240319Z 33011KT 08/M14 A3016 RMK A01 T00761135  RH  021%=      5-min Rain = 0
KHO1 240320Z 32011KT 08/M14 A3016 RMK A01 T00761135  RH  021%=      5-min Rain = 0
KHO1 240321Z 33012KT 08/M14 A3016 RMK A01 T00761135  RH  021%=      5-min Rain = 0
KHO1 240322Z 32011KT 08/M13 A3016 RMK A01 T00761134  RH  021%=      5-min Rain = 0
KHO1 240323Z 31009KT 08/M13 A3016 RMK A01 T00751134  RH  021%=      5-min Rain = 0
KHO1 240324Z 30008KT 07/M13 A3016 RMK A01 T00731133  RH  022%=      5-min Rain = 0
KHO1 240325Z 28008KT 07/M13 A3017 RMK A01 T00711133  RH  022%=      5-min Rain = 0
KHO1 240326Z 27009KT 07/M13 A3017 RMK A01 T00681133  RH  022%=      5-min Rain = 0
KHO1 240327Z 25009KT 06/M13 A3017 RMK A01 T00641134  RH  023%=      5-min Rain = 0
KHO1 240328Z 24011KT 06/M13 A3017 RMK A01 T00591134  RH  023%=      5-min Rain = 0
KHO1 240329Z 25011KT 05/M14 A3017 RMK A01 T00531135  RH  024%=      5-min Rain = 0
KHO1 240330Z 24008KT 05/M14 A3017 RMK A01 T00491136  RH  025%=      5-min Rain = 0
KHO1 240331Z 26009KT 05/M14 A3018 RMK A01 T00471135  RH  025%=      5-min Rain = 0
KHO1 240332Z 27010KT 05/M13 A3017 RMK A01 T00471133  RH  026%=      5-min Rain = 0
KHO1 240333Z 29009KT 05/M13 A3018 RMK A01 T00501132  RH  025%=      5-min Rain = 0
KHO1 240334Z 30010KT 05/M13 A3018 RMK A01 T00521132  RH  025%=      5-min Rain = 0
KHO1 240335Z 30010KT 05/M13 A3018 RMK A01 T00531131  RH  025%=      5-min Rain = 0
KHO1 240336Z 29009KT 06/M13 A3018 RMK A01 T00561131  RH  025%=      5-min Rain = 0
KHO1 240337Z 29008KT 06/M13 A3018 RMK A01 T00571132  RH  024%=      5-min Rain = 0
KHO1 240338Z 29006KT 06/M13 A3018 RMK A01 T00551132  RH  024%=      5-min Rain = 0
KHO1 240339Z 29007KT 05/M13 A3018 RMK A01 T00541133  RH  025%=      5-min Rain = 0
KHO1 240340Z 29008KT 05/M13 A3018 RMK A01 T00531133  RH  025%=      5-min Rain = 0
KHO1 240341Z 29009KT 05/M13 A3018 RMK A01 T00521132  RH  025%=      5-min Rain = 0
KHO1 240342Z 29009KT 05/M13 A3018 RMK A01 T00531133  RH  025%=      5-min Rain = 0
KHO1 240343Z 29008KT 05/M13 A3018 RMK A01 T00511133  RH  025%=      5-min Rain = 0
KHO1 240344Z 29007KT 05/M13 A3018 RMK A01 T00511132  RH  025%=      5-min Rain = 0
KHO1 240345Z 29009KT 05/M13 A3018 RMK A01 T00511132  RH  025%=      5-min Rain = 0
KHO1 240346Z 29009KT 05/M13 A3018 RMK A01 T00521131  RH  025%=      5-min Rain = 0
KHO1 240347Z 29010KT 05/M13 A3019 RMK A01 T00531131  RH  025%=      5-min Rain = 0
KHO1 240348Z 29009KT 05/M13 A3019 RMK A01 T00521131  RH  025%=      5-min Rain = 0
KHO1 240349Z 29009KT 05/M13 A3019 RMK A01 T00531131  RH  025%=      5-min Rain = 0
KHO1 240350Z 30009KT 05/M13 A3019 RMK A01 T00531131  RH  025%=      5-min Rain = 0
KHO1 240351Z 30010KT 06/M13 A3019 RMK A01 T00551131  RH  025%=      5-min Rain = 0
KHO1 240352Z 30010KT 06/M13 A3019 RMK A01 T00551131  RH  025%=      5-min Rain = 0
KHO1 240353Z 30010KT 06/M13 A3019 RMK A01 T00561131  RH  025%=      5-min Rain = 0
KHO1 240354Z 30011KT 06/M13 A3019 RMK A01 T00571131  RH  024%=      5-min Rain = 0
KHO1 240355Z 31012KT 06/M13 A3019 RMK A01 T00591131  RH  024%=      5-min Rain = 0
KHO1 240356Z 31010KT 06/M13 A3019 RMK A01 T00611131  RH  024%=      5-min Rain = 0
KHO1 240357Z 31012KT 06/M13 A3019 RMK A01 T00621131  RH  024%=      5-min Rain = 0
KHO1 240358Z 31013KT 06/M13 A3019 RMK A01 T00641131  RH  023%=      5-min Rain = 0
KHO1 240359Z 31011KT 07/M13 A3019 RMK A01 T00661131  RH  023%=      5-min Rain = 0
KHO1 240400Z 31012KT 07/M13 A3019 RMK A01 T00661132  RH  023%=      5-min Rain = 0
KHO1 240401Z 30009KT 07/M13 A3019 RMK A01 T00661132  RH  023%=      5-min Rain = 0
KHO1 240402Z 30009KT 07/M13 A302 RMK A01 T00661132  RH  023%=      5-min Rain = 0
KHO1 240403Z 30010KT 07/M13 A302 RMK A01 T00651132  RH  023%=      5-min Rain = 0
KHO1 240404Z 30011KT 07/M13 A302 RMK A01 T00661133  RH  023%=      5-min Rain = 0
KHO1 240405Z 30010KT 07/M13 A302 RMK A01 T00671133  RH  023%=      5-min Rain = 0
KHO1 240406Z 29011KT 07/M13 A302 RMK A01 T00671133  RH  022%=      5-min Rain = 0
KHO1 240407Z 30010KT 07/M13 A302 RMK A01 T00671133  RH  022%=      5-min Rain = 0
KHO1 240408Z 30010KT 07/M13 A302 RMK A01 T00661133  RH  023%=      5-min Rain = 0
KHO1 240409Z 29009KT 07/M13 A302 RMK A01 T00651133  RH  023%=      5-min Rain = 0
KHO1 240410Z 30010KT 07/M13 A302 RMK A01 T00651133  RH  023%=      5-min Rain = 0
KHO1 240411Z 30011KT 06/M13 A302 RMK A01 T00641133  RH  023%=      5-min Rain = 0
KHO1 240412Z 30011KT 07/M13 A302 RMK A01 T00651134  RH  023%=      5-min Rain = 0
KHO1 240413Z 30013KT 07/M13 A302 RMK A01 T00661134  RH  022%=      5-min Rain = 0
KHO1 240414Z 31013KT 07/M13 A302 RMK A01 T00671134  RH  022%=      5-min Rain = 0
KHO1 240415Z 32012KT 07/M13 A302 RMK A01 T00671134  RH  022%=      5-min Rain = 0
KHO1 240416Z 31014KT 07/M13 A302 RMK A01 T00671134  RH  022%=      5-min Rain = 0
KHO1 240417Z 31011KT 07/M14 A302 RMK A01 T00671135  RH  022%=      5-min Rain = 0
KHO1 240418Z 31011KT 07/M14 A302 RMK A01 T00671135  RH  022%=      5-min Rain = 0
KHO1 240419Z 31012KT 07/M14 A302 RMK A01 T00671135  RH  022%=      5-min Rain = 0
KHO1 240420Z 32012KT 07/M14 A302 RMK A01 T00671135  RH  022%=      5-min Rain = 0
KHO1 240421Z 32011KT 07/M14 A302 RMK A01 T00671135  RH  022%=      5-min Rain = 0
KHO1 240422Z 32010KT 07/M14 A302 RMK A01 T00651135  RH  022%=      5-min Rain = 0
KHO1 240423Z 32011KT 07/M14 A302 RMK A01 T00651135  RH  022%=      5-min Rain = 0
KHO1 240424Z 32012KT 07/M14 A302 RMK A01 T00651135  RH  022%=      5-min Rain = 0
KHO1 240425Z 32011KT 07/M14 A302 RMK A01 T00671135  RH  022%=      5-min Rain = 0
KHO1 240426Z 31012KT 07/M14 A302 RMK A01 T00681136  RH  022%=      5-min Rain = 0
KHO1 240427Z 32011KT 07/M14 A302 RMK A01 T00691136  RH  022%=      5-min Rain = 0
KHO1 240428Z 32010KT 07/M14 A302 RMK A01 T00691137  RH  021%=      5-min Rain = 0
KHO1 240429Z 31012KT 07/M14 A302 RMK A01 T00701138  RH  021%=      5-min Rain = 0
KHO1 240430Z 32012KT 07/M14 A302 RMK A01 T00711138  RH  021%=      5-min Rain = 0
KHO1 240431Z 31012KT 07/M14 A302 RMK A01 T00711138  RH  021%=      5-min Rain = 0
KHO1 240432Z 31011KT 07/M14 A302 RMK A01 T00711138  RH  021%=      5-min Rain = 0
KHO1 240433Z 31012KT 07/M14 A3021 RMK A01 T00711138  RH  021%=      5-min Rain = 0
KHO1 240434Z 31011KT 07/M14 A3021 RMK A01 T00711138  RH  021%=      5-min Rain = 0
KHO1 240435Z 31011KT 07/M14 A3021 RMK A01 T00701138  RH  021%=      5-min Rain = 0
KHO1 240436Z 31010KT 07/M14 A3021 RMK A01 T00691138  RH  021%=      5-min Rain = 0
KHO1 240437Z 31011KT 07/M14 A3021 RMK A01 T00681138  RH  021%=      5-min Rain = 0
KHO1 240438Z 31009KT 07/M14 A3021 RMK A01 T00671137  RH  022%=      5-min Rain = 0
KHO1 240439Z 31009KT 07/M14 A3021 RMK A01 T00661137  RH  022%=      5-min Rain = 0
KHO1 240440Z 31009KT 07/M14 A3021 RMK A01 T00651137  RH  022%=      5-min Rain = 0
KHO1 240441Z 30007KT 06/M14 A3021 RMK A01 T00641137  RH  022%=      5-min Rain = 0
KHO1 240442Z 30008KT 06/M14 A3021 RMK A01 T00631136  RH  022%=      5-min Rain = 0
KHO1 240443Z 30008KT 06/M14 A3022 RMK A01 T00611136  RH  023%=      5-min Rain = 0
KHO1 240444Z 30008KT 06/M14 A3022 RMK A01 T00601136  RH  023%=      5-min Rain = 0
KHO1 240445Z 30009KT 06/M14 A3022 RMK A01 T00591136  RH  023%=      5-min Rain = 0
KHO1 240446Z 30009KT 06/M14 A3022 RMK A01 T00571136  RH  023%=      5-min Rain = 0
KHO1 240447Z 30008KT 06/M14 A3022 RMK A01 T00561136  RH  024%=      5-min Rain = 0
KHO1 240448Z 31008KT 06/M14 A3022 RMK A01 T00551136  RH  024%=      5-min Rain = 0
KHO1 240449Z 30009KT 05/M14 A3022 RMK A01 T00541136  RH  024%=      5-min Rain = 0
KHO1 240450Z 30008KT 05/M14 A3022 RMK A01 T00531136  RH  024%=      5-min Rain = 0
KHO1 240451Z 30007KT 05/M14 A3022 RMK A01 T00531136  RH  024%=      5-min Rain = 0
KHO1 240452Z 31007KT 05/M14 A3022 RMK A01 T00521136  RH  024%=      5-min Rain = 0
KHO1 240453Z 30007KT 05/M14 A3022 RMK A01 T00501136  RH  025%=      5-min Rain = 0
KHO1 240454Z 31007KT 05/M14 A3022 RMK A01 T00501136  RH  025%=      5-min Rain = 0
KHO1 240455Z 30006KT 05/M14 A3022 RMK A01 T00491136  RH  025%=      5-min Rain = 0
KHO1 240456Z 30007KT 05/M14 A3023 RMK A01 T00491136  RH  025%=      5-min Rain = 0
KHO1 240457Z 29006KT 05/M14 A3023 RMK A01 T00491136  RH  025%=      5-min Rain = 0
KHO1 240458Z 30006KT 05/M14 A3023 RMK A01 T00481136  RH  025%=      5-min Rain = 0
KHO1 240459Z 30007KT 05/M14 A3023 RMK A01 T00471136  RH  025%=      5-min Rain = 0
KHO1 240500Z 30006KT 05/M14 A3023 RMK A01 T00461136  RH  025%=      5-min Rain = 0
KHO1 240501Z 30005KT 05/M14 A3023 RMK A01 T00451136  RH  025%=      5-min Rain = 0
KHO1 240502Z 31005KT 04/M14 A3023 RMK A01 T00431136  RH  026%=      5-min Rain = 0
KHO1 240503Z 31005KT 04/M14 A3023 RMK A01 T00421136  RH  026%=      5-min Rain = 0
KHO1 240504Z 31005KT 04/M14 A3023 RMK A01 T00421136  RH  026%=      5-min Rain = 0
KHO1 240505Z 31006KT 04/M14 A3023 RMK A01 T00411136  RH  026%=      5-min Rain = 0
KHO1 240506Z 30005KT 04/M14 A3023 RMK A01 T00401136  RH  026%=      5-min Rain = 0
KHO1 240507Z 30005KT 04/M14 A3023 RMK A01 T00401136  RH  026%=      5-min Rain = 0
KHO1 240508Z 30005KT 04/M14 A3023 RMK A01 T00401136  RH  026%=      5-min Rain = 0
KHO1 240509Z 30005KT 04/M14 A3023 RMK A01 T00391136  RH  026%=      5-min Rain = 0
KHO1 240510Z 30005KT 04/M14 A3023 RMK A01 T00391137  RH  026%=      5-min Rain = 0
KHO1 240511Z 30005KT 04/M14 A3023 RMK A01 T00391137  RH  027%=      5-min Rain = 0
KHO1 240512Z 30005KT 04/M14 A3023 RMK A01 T00381137  RH  027%=      5-min Rain = 0
KHO1 240513Z 30005KT 04/M14 A3023 RMK A01 T00381137  RH  027%=      5-min Rain = 0
KHO1 240514Z 31005KT 04/M14 A3023 RMK A01 T00371137  RH  027%=      5-min Rain = 0
KHO1 240515Z 31004KT 04/M14 A3023 RMK A01 T00361137  RH  027%=      5-min Rain = 0
KHO1 240516Z 31004KT 04/M14 A3023 RMK A01 T00361137  RH  027%=      5-min Rain = 0
KHO1 240517Z 31005KT 04/M14 A3023 RMK A01 T00351137  RH  027%=      5-min Rain = 0
KHO1 240518Z 31005KT 03/M14 A3024 RMK A01 T00341137  RH  027%=      5-min Rain = 0
KHO1 240519Z 31005KT 03/M14 A3024 RMK A01 T00341137  RH  027%=      5-min Rain = 0
KHO1 240520Z 30005KT 03/M14 A3024 RMK A01 T00341136  RH  028%=      5-min Rain = 0
KHO1 240521Z 31005KT 03/M14 A3024 RMK A01 T00331137  RH  028%=      5-min Rain = 0
KHO1 240522Z 31005KT 03/M14 A3024 RMK A01 T00331137  RH  028%=      5-min Rain = 0
KHO1 240523Z 31005KT 03/M14 A3024 RMK A01 T00331137  RH  028%=      5-min Rain = 0
KHO1 240524Z 31005KT 03/M14 A3024 RMK A01 T00331137  RH  028%=      5-min Rain = 0
KHO1 240525Z 31004KT 03/M14 A3024 RMK A01 T00331137  RH  028%=      5-min Rain = 0
KHO1 240526Z 31005KT 03/M14 A3024 RMK A01 T00331137  RH  028%=      5-min Rain = 0
KHO1 240527Z 31005KT 03/M14 A3024 RMK A01 T00331138  RH  027%=      5-min Rain = 0
KHO1 240528Z 32004KT 03/M14 A3024 RMK A01 T00331138  RH  027%=      5-min Rain = 0
KHO1 240529Z 33003KT 03/M14 A3024 RMK A01 T00331138  RH  027%=      5-min Rain = 0
KHO1 240530Z 33005KT 03/M14 A3024 RMK A01 T00331138  RH  027%=      5-min Rain = 0
KHO1 240531Z 33005KT 03/M14 A3024 RMK A01 T00341138  RH  027%=      5-min Rain = 0
KHO1 240532Z 33005KT 03/M14 A3024 RMK A01 T00341138  RH  027%=      5-min Rain = 0
KHO1 240533Z 33006KT 03/M14 A3023 RMK A01 T00341138  RH  027%=      5-min Rain = 0
KHO1 240534Z 34007KT 03/M14 A3023 RMK A01 T00331138  RH  027%=      5-min Rain = 0
KHO1 240535Z 34006KT 03/M14 A3023 RMK A01 T00321138  RH  028%=      5-min Rain = 0
KHO1 240536Z 33006KT 03/M14 A3023 RMK A01 T00331139  RH  027%=      5-min Rain = 0
KHO1 240537Z 33006KT 03/M14 A3023 RMK A01 T00341139  RH  027%=      5-min Rain = 0
KHO1 240538Z 33006KT 03/M14 A3023 RMK A01 T00331139  RH  027%=      5-min Rain = 0
KHO1 240539Z 33005KT 03/M14 A3023 RMK A01 T00321140  RH  027%=      5-min Rain = 0
KHO1 240540Z 33005KT 03/M14 A3023 RMK A01 T00321140  RH  027%=      5-min Rain = 0
KHO1 240541Z 33006KT 03/M14 A3023 RMK A01 T00331139  RH  027%=      5-min Rain = 0
KHO1 240542Z 32007KT 03/M14 A3023 RMK A01 T00331139  RH  027%=      5-min Rain = 0
KHO1 240543Z 32006KT 03/M14 A3023 RMK A01 T00341139  RH  027%=      5-min Rain = 0
KHO1 240544Z 32006KT 03/M14 A3023 RMK A01 T00341139  RH  027%=      5-min Rain = 0
KHO1 240545Z 32006KT 03/M14 A3023 RMK A01 T00341138  RH  027%=      5-min Rain = 0
KHO1 240546Z 32005KT 03/M14 A3023 RMK A01 T00331139  RH  027%=      5-min Rain = 0
KHO1 240547Z 32006KT 03/M14 A3023 RMK A01 T00341139  RH  027%=      5-min Rain = 0
KHO1 240548Z 32006KT 03/M14 A3023 RMK A01 T00341139  RH  027%=      5-min Rain = 0
KHO1 240549Z 32006KT 03/M14 A3023 RMK A01 T00341139  RH  027%=      5-min Rain = 0
KHO1 240550Z 32006KT 03/M14 A3023 RMK A01 T00341139  RH  027%=      5-min Rain = 0
KHO1 240551Z 32007KT 03/M14 A3023 RMK A01 T00341139  RH  027%=      5-min Rain = 0
KHO1 240552Z 31007KT 03/M14 A3023 RMK A01 T00341139  RH  027%=      5-min Rain = 0
KHO1 240553Z 31007KT 03/M14 A3024 RMK A01 T00341140  RH  027%=      5-min Rain = 0
KHO1 240554Z 31008KT 04/M14 A3024 RMK A01 T00351140  RH  027%=      5-min Rain = 0
KHO1 240555Z 31008KT 04/M14 A3024 RMK A01 T00351139  RH  027%=      5-min Rain = 0
KHO1 240556Z 32009KT 04/M14 A3024 RMK A01 T00351139  RH  027%=      5-min Rain = 0
KHO1 240557Z 32009KT 04/M14 A3024 RMK A01 T00361139  RH  027%=      5-min Rain = 0
KHO1 240558Z 31008KT 04/M14 A3024 RMK A01 T00361139  RH  027%=      5-min Rain = 0
KHO1 240559Z 31008KT 04/M14 A3024 RMK A01 T00361139  RH  026%=      5-min Rain = 0

Page generated in 0.0874 seconds.